<?xml version="1.0" encoding="UTF-8" standalone="no" ?>
<gpx xmlns="http://www.topografix.com/GPX/1/1" xmlns:xsi="http://www.w3.org/2001/XMLSchema-instance" xsi:schemaLocation="http://www.topografix.com/GPX/1/1 http://www.topografix.com/GPX/1/1/gpx.xsd" version="1.1" creator="VisuGPX - https://www.visugpx.com">
  <metadata>
    <name>pic de rulhe</name>
    <desc><![CDATA[le départ  de cette rando Alpine,( en boucle, )s'effectue au parking du plat de las peyres, au dessus du barrage de laparan, dans la vallée d'Aston 09 .  attention, rando   avec de forte pentes et mauvais terrains   destiné  a des randonneurs  aguerris  ; bonne rando ]]></desc>
  </metadata>
  <trk>
    <name><![CDATA[pic de rulhe_1]]></name>
    <trkseg>
      <trkpt lat="42.64949" lon="1.70362">
        <ele>1684</ele>
        <time>2017-11-02T07:13:12Z</time>
      </trkpt>
      <trkpt lat="42.64949" lon="1.70364">
        <ele>1703.089355</ele>
        <time>2017-11-02T07:13:17Z</time>
      </trkpt>
      <trkpt lat="42.64955" lon="1.70374">
        <ele>1709.5</ele>
        <time>2017-11-02T07:18:24Z</time>
      </trkpt>
      <trkpt lat="42.6496" lon="1.70391">
        <ele>1712</ele>
        <time>2017-11-02T07:18:47Z</time>
      </trkpt>
      <trkpt lat="42.64955" lon="1.70378">
        <ele>1713.5</ele>
        <time>2017-11-02T07:18:51Z</time>
      </trkpt>
      <trkpt lat="42.64952" lon="1.70366">
        <ele>1712.099976</ele>
        <time>2017-11-02T07:18:52Z</time>
      </trkpt>
      <trkpt lat="42.64948" lon="1.70354">
        <ele>1707.599976</ele>
        <time>2017-11-02T07:18:56Z</time>
      </trkpt>
      <trkpt lat="42.64948" lon="1.70368">
        <ele>1708</ele>
        <time>2017-11-02T07:19:25Z</time>
      </trkpt>
      <trkpt lat="42.64941" lon="1.7036">
        <ele>1707.400024</ele>
        <time>2017-11-02T07:19:38Z</time>
      </trkpt>
      <trkpt lat="42.64932" lon="1.70357">
        <ele>1705.699951</ele>
        <time>2017-11-02T07:19:47Z</time>
      </trkpt>
      <trkpt lat="42.64924" lon="1.70349">
        <ele>1704.199951</ele>
        <time>2017-11-02T07:19:56Z</time>
      </trkpt>
      <trkpt lat="42.64914" lon="1.70346">
        <ele>1703.099976</ele>
        <time>2017-11-02T07:20:18Z</time>
      </trkpt>
      <trkpt lat="42.64908" lon="1.70338">
        <ele>1701.400024</ele>
        <time>2017-11-02T07:20:29Z</time>
      </trkpt>
      <trkpt lat="42.64901" lon="1.70329">
        <ele>1699.599976</ele>
        <time>2017-11-02T07:20:33Z</time>
      </trkpt>
      <trkpt lat="42.64892" lon="1.70333">
        <ele>1698.5</ele>
        <time>2017-11-02T07:20:44Z</time>
      </trkpt>
      <trkpt lat="42.64883" lon="1.7033">
        <ele>1698.300049</ele>
        <time>2017-11-02T07:20:52Z</time>
      </trkpt>
      <trkpt lat="42.64872" lon="1.70328">
        <ele>1698.099976</ele>
        <time>2017-11-02T07:21:00Z</time>
      </trkpt>
      <trkpt lat="42.64863" lon="1.70331">
        <ele>1697.800049</ele>
        <time>2017-11-02T07:21:10Z</time>
      </trkpt>
      <trkpt lat="42.64854" lon="1.70333">
        <ele>1697.599976</ele>
        <time>2017-11-02T07:21:17Z</time>
      </trkpt>
      <trkpt lat="42.64844" lon="1.70329">
        <ele>1697.300049</ele>
        <time>2017-11-02T07:21:25Z</time>
      </trkpt>
      <trkpt lat="42.64835" lon="1.70323">
        <ele>1697.099976</ele>
        <time>2017-11-02T07:21:32Z</time>
      </trkpt>
      <trkpt lat="42.64826" lon="1.70323">
        <ele>1697.199951</ele>
        <time>2017-11-02T07:21:40Z</time>
      </trkpt>
      <trkpt lat="42.64817" lon="1.70318">
        <ele>1697.5</ele>
        <time>2017-11-02T07:21:47Z</time>
      </trkpt>
      <trkpt lat="42.64808" lon="1.70314">
        <ele>1697.900024</ele>
        <time>2017-11-02T07:21:55Z</time>
      </trkpt>
      <trkpt lat="42.64799" lon="1.70318">
        <ele>1698.300049</ele>
        <time>2017-11-02T07:22:06Z</time>
      </trkpt>
      <trkpt lat="42.64793" lon="1.70309">
        <ele>1698.599976</ele>
        <time>2017-11-02T07:22:12Z</time>
      </trkpt>
      <trkpt lat="42.64784" lon="1.70302">
        <ele>1698.800049</ele>
        <time>2017-11-02T07:22:21Z</time>
      </trkpt>
      <trkpt lat="42.64775" lon="1.70303">
        <ele>1699.199951</ele>
        <time>2017-11-02T07:22:31Z</time>
      </trkpt>
      <trkpt lat="42.64766" lon="1.70303">
        <ele>1699.5</ele>
        <time>2017-11-02T07:22:38Z</time>
      </trkpt>
      <trkpt lat="42.64759" lon="1.70293">
        <ele>1699.699951</ele>
        <time>2017-11-02T07:22:44Z</time>
      </trkpt>
      <trkpt lat="42.64751" lon="1.70286">
        <ele>1699.800049</ele>
        <time>2017-11-02T07:22:57Z</time>
      </trkpt>
      <trkpt lat="42.64741" lon="1.70287">
        <ele>1700.099976</ele>
        <time>2017-11-02T07:23:07Z</time>
      </trkpt>
      <trkpt lat="42.64732" lon="1.70287">
        <ele>1700.599976</ele>
        <time>2017-11-02T07:23:15Z</time>
      </trkpt>
      <trkpt lat="42.64723" lon="1.70287">
        <ele>1701</ele>
        <time>2017-11-02T07:23:23Z</time>
      </trkpt>
      <trkpt lat="42.64714" lon="1.7029">
        <ele>1701.5</ele>
        <time>2017-11-02T07:23:31Z</time>
      </trkpt>
      <trkpt lat="42.64705" lon="1.70293">
        <ele>1702.099976</ele>
        <time>2017-11-02T07:23:42Z</time>
      </trkpt>
      <trkpt lat="42.64696" lon="1.70295">
        <ele>1702.5</ele>
        <time>2017-11-02T07:23:50Z</time>
      </trkpt>
      <trkpt lat="42.64689" lon="1.70304">
        <ele>1703.099976</ele>
        <time>2017-11-02T07:24:01Z</time>
      </trkpt>
      <trkpt lat="42.6468" lon="1.70299">
        <ele>1703.5</ele>
        <time>2017-11-02T07:24:16Z</time>
      </trkpt>
      <trkpt lat="42.64674" lon="1.7029">
        <ele>1703.599976</ele>
        <time>2017-11-02T07:24:25Z</time>
      </trkpt>
      <trkpt lat="42.64665" lon="1.70295">
        <ele>1704</ele>
        <time>2017-11-02T07:24:37Z</time>
      </trkpt>
      <trkpt lat="42.64656" lon="1.70294">
        <ele>1705.400024</ele>
        <time>2017-11-02T07:24:51Z</time>
      </trkpt>
      <trkpt lat="42.64647" lon="1.70289">
        <ele>1706.5</ele>
        <time>2017-11-02T07:24:59Z</time>
      </trkpt>
      <trkpt lat="42.64638" lon="1.70287">
        <ele>1707.900024</ele>
        <time>2017-11-02T07:25:10Z</time>
      </trkpt>
      <trkpt lat="42.64631" lon="1.70279">
        <ele>1708.800049</ele>
        <time>2017-11-02T07:25:17Z</time>
      </trkpt>
      <trkpt lat="42.64621" lon="1.70275">
        <ele>1709.5</ele>
        <time>2017-11-02T07:25:24Z</time>
      </trkpt>
      <trkpt lat="42.64611" lon="1.70272">
        <ele>1710.599976</ele>
        <time>2017-11-02T07:25:31Z</time>
      </trkpt>
      <trkpt lat="42.64603" lon="1.70265">
        <ele>1711.199951</ele>
        <time>2017-11-02T07:25:38Z</time>
      </trkpt>
      <trkpt lat="42.64594" lon="1.70267">
        <ele>1712.300049</ele>
        <time>2017-11-02T07:25:46Z</time>
      </trkpt>
      <trkpt lat="42.64584" lon="1.70269">
        <ele>1714</ele>
        <time>2017-11-02T07:25:54Z</time>
      </trkpt>
      <trkpt lat="42.64575" lon="1.70268">
        <ele>1714.699951</ele>
        <time>2017-11-02T07:26:02Z</time>
      </trkpt>
      <trkpt lat="42.64566" lon="1.7027">
        <ele>1716.199951</ele>
        <time>2017-11-02T07:26:10Z</time>
      </trkpt>
      <trkpt lat="42.64555" lon="1.7027">
        <ele>1717.5</ele>
        <time>2017-11-02T07:26:19Z</time>
      </trkpt>
      <trkpt lat="42.64546" lon="1.7027">
        <ele>1718.800049</ele>
        <time>2017-11-02T07:26:30Z</time>
      </trkpt>
      <trkpt lat="42.64538" lon="1.70263">
        <ele>1718.699951</ele>
        <time>2017-11-02T07:26:38Z</time>
      </trkpt>
      <trkpt lat="42.64528" lon="1.70264">
        <ele>1719.599976</ele>
        <time>2017-11-02T07:26:49Z</time>
      </trkpt>
      <trkpt lat="42.64519" lon="1.70263">
        <ele>1720.699951</ele>
        <time>2017-11-02T07:27:03Z</time>
      </trkpt>
      <trkpt lat="42.6451" lon="1.70261">
        <ele>1721.199951</ele>
        <time>2017-11-02T07:27:11Z</time>
      </trkpt>
      <trkpt lat="42.64501" lon="1.70265">
        <ele>1722.599976</ele>
        <time>2017-11-02T07:27:19Z</time>
      </trkpt>
      <trkpt lat="42.64493" lon="1.7027">
        <ele>1724.199951</ele>
        <time>2017-11-02T07:27:31Z</time>
      </trkpt>
      <trkpt lat="42.64484" lon="1.70269">
        <ele>1724.300049</ele>
        <time>2017-11-02T07:27:40Z</time>
      </trkpt>
      <trkpt lat="42.64474" lon="1.70268">
        <ele>1724.199951</ele>
        <time>2017-11-02T07:27:48Z</time>
      </trkpt>
      <trkpt lat="42.64466" lon="1.70265">
        <ele>1723.699951</ele>
        <time>2017-11-02T07:27:56Z</time>
      </trkpt>
      <trkpt lat="42.64457" lon="1.7027">
        <ele>1724.199951</ele>
        <time>2017-11-02T07:28:05Z</time>
      </trkpt>
      <trkpt lat="42.64449" lon="1.70265">
        <ele>1723.699951</ele>
        <time>2017-11-02T07:28:13Z</time>
      </trkpt>
      <trkpt lat="42.6444" lon="1.70271">
        <ele>1724.900024</ele>
        <time>2017-11-02T07:28:24Z</time>
      </trkpt>
      <trkpt lat="42.64433" lon="1.70279">
        <ele>1727.199951</ele>
        <time>2017-11-02T07:28:31Z</time>
      </trkpt>
      <trkpt lat="42.64423" lon="1.70283">
        <ele>1729.900024</ele>
        <time>2017-11-02T07:28:41Z</time>
      </trkpt>
      <trkpt lat="42.64414" lon="1.70285">
        <ele>1731.699951</ele>
        <time>2017-11-02T07:28:57Z</time>
      </trkpt>
      <trkpt lat="42.64405" lon="1.70278">
        <ele>1730</ele>
        <time>2017-11-02T07:29:06Z</time>
      </trkpt>
      <trkpt lat="42.64396" lon="1.70274">
        <ele>1728.400024</ele>
        <time>2017-11-02T07:29:15Z</time>
      </trkpt>
      <trkpt lat="42.64387" lon="1.70273">
        <ele>1728</ele>
        <time>2017-11-02T07:29:24Z</time>
      </trkpt>
      <trkpt lat="42.64378" lon="1.70277">
        <ele>1728.900024</ele>
        <time>2017-11-02T07:29:32Z</time>
      </trkpt>
      <trkpt lat="42.6437" lon="1.70281">
        <ele>1731.400024</ele>
        <time>2017-11-02T07:29:41Z</time>
      </trkpt>
      <trkpt lat="42.64362" lon="1.70287">
        <ele>1733.699951</ele>
        <time>2017-11-02T07:29:49Z</time>
      </trkpt>
      <trkpt lat="42.64354" lon="1.70294">
        <ele>1736.199951</ele>
        <time>2017-11-02T07:29:56Z</time>
      </trkpt>
      <trkpt lat="42.64345" lon="1.70296">
        <ele>1737.800049</ele>
        <time>2017-11-02T07:30:11Z</time>
      </trkpt>
      <trkpt lat="42.64336" lon="1.703">
        <ele>1739.400024</ele>
        <time>2017-11-02T07:30:23Z</time>
      </trkpt>
      <trkpt lat="42.64329" lon="1.7031">
        <ele>1742.300049</ele>
        <time>2017-11-02T07:30:33Z</time>
      </trkpt>
      <trkpt lat="42.6432" lon="1.70317">
        <ele>1744.699951</ele>
        <time>2017-11-02T07:30:43Z</time>
      </trkpt>
      <trkpt lat="42.64314" lon="1.70327">
        <ele>1747</ele>
        <time>2017-11-02T07:30:52Z</time>
      </trkpt>
      <trkpt lat="42.64305" lon="1.70326">
        <ele>1747.699951</ele>
        <time>2017-11-02T07:31:08Z</time>
      </trkpt>
      <trkpt lat="42.64295" lon="1.70322">
        <ele>1746</ele>
        <time>2017-11-02T07:31:15Z</time>
      </trkpt>
      <trkpt lat="42.64285" lon="1.7032">
        <ele>1744.699951</ele>
        <time>2017-11-02T07:31:30Z</time>
      </trkpt>
      <trkpt lat="42.64276" lon="1.70321">
        <ele>1744.5</ele>
        <time>2017-11-02T07:31:42Z</time>
      </trkpt>
      <trkpt lat="42.64267" lon="1.70323">
        <ele>1745</ele>
        <time>2017-11-02T07:31:53Z</time>
      </trkpt>
      <trkpt lat="42.64257" lon="1.70327">
        <ele>1745.199951</ele>
        <time>2017-11-02T07:32:04Z</time>
      </trkpt>
      <trkpt lat="42.6425" lon="1.70333">
        <ele>1746.199951</ele>
        <time>2017-11-02T07:32:12Z</time>
      </trkpt>
      <trkpt lat="42.6424" lon="1.70338">
        <ele>1749.5</ele>
        <time>2017-11-02T07:32:29Z</time>
      </trkpt>
      <trkpt lat="42.64232" lon="1.70345">
        <ele>1750.900024</ele>
        <time>2017-11-02T07:32:41Z</time>
      </trkpt>
      <trkpt lat="42.64224" lon="1.70352">
        <ele>1753.800049</ele>
        <time>2017-11-02T07:32:51Z</time>
      </trkpt>
      <trkpt lat="42.64218" lon="1.70362">
        <ele>1758.900024</ele>
        <time>2017-11-02T07:33:20Z</time>
      </trkpt>
      <trkpt lat="42.64211" lon="1.70374">
        <ele>1762.5</ele>
        <time>2017-11-02T07:33:28Z</time>
      </trkpt>
      <trkpt lat="42.64206" lon="1.70384">
        <ele>1768.400024</ele>
        <time>2017-11-02T07:33:39Z</time>
      </trkpt>
      <trkpt lat="42.64202" lon="1.70396">
        <ele>1773.300049</ele>
        <time>2017-11-02T07:34:10Z</time>
      </trkpt>
      <trkpt lat="42.64196" lon="1.70406">
        <ele>1777.400024</ele>
        <time>2017-11-02T07:34:21Z</time>
      </trkpt>
      <trkpt lat="42.64189" lon="1.70415">
        <ele>1781.099976</ele>
        <time>2017-11-02T07:34:29Z</time>
      </trkpt>
      <trkpt lat="42.6418" lon="1.7042">
        <ele>1783.099976</ele>
        <time>2017-11-02T07:34:37Z</time>
      </trkpt>
      <trkpt lat="42.64185" lon="1.70431">
        <ele>1788.199951</ele>
        <time>2017-11-02T07:35:06Z</time>
      </trkpt>
      <trkpt lat="42.64182" lon="1.70447">
        <ele>1793.199951</ele>
        <time>2017-11-02T07:35:46Z</time>
      </trkpt>
      <trkpt lat="42.64176" lon="1.70457">
        <ele>1797.599976</ele>
        <time>2017-11-02T07:35:59Z</time>
      </trkpt>
      <trkpt lat="42.64177" lon="1.7047">
        <ele>1804.099976</ele>
        <time>2017-11-02T07:36:43Z</time>
      </trkpt>
      <trkpt lat="42.64173" lon="1.70481">
        <ele>1808.300049</ele>
        <time>2017-11-02T07:36:55Z</time>
      </trkpt>
      <trkpt lat="42.64169" lon="1.70493">
        <ele>1813.099976</ele>
        <time>2017-11-02T07:37:13Z</time>
      </trkpt>
      <trkpt lat="42.64162" lon="1.70501">
        <ele>1815.099976</ele>
        <time>2017-11-02T07:37:25Z</time>
      </trkpt>
      <trkpt lat="42.6415" lon="1.7051">
        <ele>1815.300049</ele>
        <time>2017-11-02T07:37:32Z</time>
      </trkpt>
      <trkpt lat="42.64145" lon="1.70521">
        <ele>1815.900024</ele>
        <time>2017-11-02T07:37:45Z</time>
      </trkpt>
      <trkpt lat="42.64138" lon="1.7053">
        <ele>1817.300049</ele>
        <time>2017-11-02T07:38:03Z</time>
      </trkpt>
      <trkpt lat="42.64131" lon="1.70538">
        <ele>1818.5</ele>
        <time>2017-11-02T07:38:29Z</time>
      </trkpt>
      <trkpt lat="42.64126" lon="1.70549">
        <ele>1820.5</ele>
        <time>2017-11-02T07:38:51Z</time>
      </trkpt>
      <trkpt lat="42.64121" lon="1.70559">
        <ele>1823.099976</ele>
        <time>2017-11-02T07:39:04Z</time>
      </trkpt>
      <trkpt lat="42.64118" lon="1.70573">
        <ele>1826.599976</ele>
        <time>2017-11-02T07:39:30Z</time>
      </trkpt>
      <trkpt lat="42.64119" lon="1.70585">
        <ele>1831.599976</ele>
        <time>2017-11-02T07:39:50Z</time>
      </trkpt>
      <trkpt lat="42.64115" lon="1.70597">
        <ele>1833.900024</ele>
        <time>2017-11-02T07:40:02Z</time>
      </trkpt>
      <trkpt lat="42.64111" lon="1.70608">
        <ele>1836.300049</ele>
        <time>2017-11-02T07:40:11Z</time>
      </trkpt>
      <trkpt lat="42.64105" lon="1.70618">
        <ele>1838</ele>
        <time>2017-11-02T07:40:26Z</time>
      </trkpt>
      <trkpt lat="42.64104" lon="1.70631">
        <ele>1841.099976</ele>
        <time>2017-11-02T07:40:43Z</time>
      </trkpt>
      <trkpt lat="42.64099" lon="1.70643">
        <ele>1842.900024</ele>
        <time>2017-11-02T07:40:52Z</time>
      </trkpt>
      <trkpt lat="42.64094" lon="1.70656">
        <ele>1845.599976</ele>
        <time>2017-11-02T07:41:19Z</time>
      </trkpt>
      <trkpt lat="42.64092" lon="1.70669">
        <ele>1847.900024</ele>
        <time>2017-11-02T07:41:36Z</time>
      </trkpt>
      <trkpt lat="42.64091" lon="1.70681">
        <ele>1850</ele>
        <time>2017-11-02T07:41:51Z</time>
      </trkpt>
      <trkpt lat="42.64087" lon="1.70693">
        <ele>1851.699951</ele>
        <time>2017-11-02T07:42:01Z</time>
      </trkpt>
      <trkpt lat="42.64082" lon="1.70704">
        <ele>1853</ele>
        <time>2017-11-02T07:42:14Z</time>
      </trkpt>
      <trkpt lat="42.64078" lon="1.70716">
        <ele>1854.599976</ele>
        <time>2017-11-02T07:42:28Z</time>
      </trkpt>
      <trkpt lat="42.64075" lon="1.70727">
        <ele>1856.400024</ele>
        <time>2017-11-02T07:42:47Z</time>
      </trkpt>
      <trkpt lat="42.64069" lon="1.70738">
        <ele>1857.5</ele>
        <time>2017-11-02T07:43:00Z</time>
      </trkpt>
      <trkpt lat="42.64063" lon="1.70748">
        <ele>1858.5</ele>
        <time>2017-11-02T07:43:10Z</time>
      </trkpt>
      <trkpt lat="42.64057" lon="1.70758">
        <ele>1859</ele>
        <time>2017-11-02T07:43:21Z</time>
      </trkpt>
      <trkpt lat="42.64052" lon="1.70768">
        <ele>1859.300049</ele>
        <time>2017-11-02T07:43:42Z</time>
      </trkpt>
      <trkpt lat="42.64044" lon="1.70777">
        <ele>1859.300049</ele>
        <time>2017-11-02T07:43:50Z</time>
      </trkpt>
      <trkpt lat="42.64037" lon="1.70785">
        <ele>1859.099976</ele>
        <time>2017-11-02T07:44:02Z</time>
      </trkpt>
      <trkpt lat="42.64031" lon="1.70795">
        <ele>1859.5</ele>
        <time>2017-11-02T07:44:15Z</time>
      </trkpt>
      <trkpt lat="42.64025" lon="1.70805">
        <ele>1860</ele>
        <time>2017-11-02T07:44:28Z</time>
      </trkpt>
      <trkpt lat="42.64017" lon="1.70813">
        <ele>1859.800049</ele>
        <time>2017-11-02T07:44:38Z</time>
      </trkpt>
      <trkpt lat="42.64011" lon="1.70822">
        <ele>1860.5</ele>
        <time>2017-11-02T07:44:53Z</time>
      </trkpt>
      <trkpt lat="42.64005" lon="1.70833">
        <ele>1861.199951</ele>
        <time>2017-11-02T07:45:06Z</time>
      </trkpt>
      <trkpt lat="42.64003" lon="1.70845">
        <ele>1862.599976</ele>
        <time>2017-11-02T07:45:18Z</time>
      </trkpt>
      <trkpt lat="42.63999" lon="1.70856">
        <ele>1863.699951</ele>
        <time>2017-11-02T07:45:29Z</time>
      </trkpt>
      <trkpt lat="42.63997" lon="1.70868">
        <ele>1865.400024</ele>
        <time>2017-11-02T07:45:54Z</time>
      </trkpt>
      <trkpt lat="42.63991" lon="1.70879">
        <ele>1866.5</ele>
        <time>2017-11-02T07:46:05Z</time>
      </trkpt>
      <trkpt lat="42.63988" lon="1.70891">
        <ele>1867.699951</ele>
        <time>2017-11-02T07:46:14Z</time>
      </trkpt>
      <trkpt lat="42.63986" lon="1.70903">
        <ele>1869.199951</ele>
        <time>2017-11-02T07:46:24Z</time>
      </trkpt>
      <trkpt lat="42.63981" lon="1.70914">
        <ele>1870.400024</ele>
        <time>2017-11-02T07:46:36Z</time>
      </trkpt>
      <trkpt lat="42.63982" lon="1.70927">
        <ele>1872.400024</ele>
        <time>2017-11-02T07:46:52Z</time>
      </trkpt>
      <trkpt lat="42.6398" lon="1.7094">
        <ele>1874.300049</ele>
        <time>2017-11-02T07:47:05Z</time>
      </trkpt>
      <trkpt lat="42.63983" lon="1.70953">
        <ele>1876.400024</ele>
        <time>2017-11-02T07:47:16Z</time>
      </trkpt>
      <trkpt lat="42.63986" lon="1.70965">
        <ele>1878.699951</ele>
        <time>2017-11-02T07:47:27Z</time>
      </trkpt>
      <trkpt lat="42.63989" lon="1.70976">
        <ele>1880.699951</ele>
        <time>2017-11-02T07:47:38Z</time>
      </trkpt>
      <trkpt lat="42.63989" lon="1.70989">
        <ele>1882.800049</ele>
        <time>2017-11-02T07:47:51Z</time>
      </trkpt>
      <trkpt lat="42.63989" lon="1.71002">
        <ele>1884.699951</ele>
        <time>2017-11-02T07:48:02Z</time>
      </trkpt>
      <trkpt lat="42.63989" lon="1.71015">
        <ele>1886.199951</ele>
        <time>2017-11-02T07:48:15Z</time>
      </trkpt>
      <trkpt lat="42.63987" lon="1.71028">
        <ele>1887.5</ele>
        <time>2017-11-02T07:48:28Z</time>
      </trkpt>
      <trkpt lat="42.63986" lon="1.71041">
        <ele>1888.699951</ele>
        <time>2017-11-02T07:48:41Z</time>
      </trkpt>
      <trkpt lat="42.63984" lon="1.71053">
        <ele>1889.599976</ele>
        <time>2017-11-02T07:48:52Z</time>
      </trkpt>
      <trkpt lat="42.63982" lon="1.71065">
        <ele>1890.800049</ele>
        <time>2017-11-02T07:49:03Z</time>
      </trkpt>
      <trkpt lat="42.6398" lon="1.71078">
        <ele>1891.599976</ele>
        <time>2017-11-02T07:49:13Z</time>
      </trkpt>
      <trkpt lat="42.63979" lon="1.71091">
        <ele>1892.599976</ele>
        <time>2017-11-02T07:49:23Z</time>
      </trkpt>
      <trkpt lat="42.63982" lon="1.71103">
        <ele>1893.699951</ele>
        <time>2017-11-02T07:49:34Z</time>
      </trkpt>
      <trkpt lat="42.63981" lon="1.71115">
        <ele>1894.400024</ele>
        <time>2017-11-02T07:49:44Z</time>
      </trkpt>
      <trkpt lat="42.63985" lon="1.71126">
        <ele>1895.300049</ele>
        <time>2017-11-02T07:49:55Z</time>
      </trkpt>
      <trkpt lat="42.63986" lon="1.71139">
        <ele>1896.199951</ele>
        <time>2017-11-02T07:50:06Z</time>
      </trkpt>
      <trkpt lat="42.63987" lon="1.71152">
        <ele>1897</ele>
        <time>2017-11-02T07:50:16Z</time>
      </trkpt>
      <trkpt lat="42.63984" lon="1.71165">
        <ele>1897.599976</ele>
        <time>2017-11-02T07:50:27Z</time>
      </trkpt>
      <trkpt lat="42.63986" lon="1.71178">
        <ele>1898.5</ele>
        <time>2017-11-02T07:50:37Z</time>
      </trkpt>
      <trkpt lat="42.63977" lon="1.71182">
        <ele>1898.699951</ele>
        <time>2017-11-02T07:50:52Z</time>
      </trkpt>
      <trkpt lat="42.63972" lon="1.71192">
        <ele>1899</ele>
        <time>2017-11-02T07:51:06Z</time>
      </trkpt>
      <trkpt lat="42.63969" lon="1.71204">
        <ele>1899.699951</ele>
        <time>2017-11-02T07:51:16Z</time>
      </trkpt>
      <trkpt lat="42.63967" lon="1.71218">
        <ele>1900.699951</ele>
        <time>2017-11-02T07:51:26Z</time>
      </trkpt>
      <trkpt lat="42.63971" lon="1.7123">
        <ele>1901.900024</ele>
        <time>2017-11-02T07:51:38Z</time>
      </trkpt>
      <trkpt lat="42.63969" lon="1.71243">
        <ele>1903</ele>
        <time>2017-11-02T07:51:50Z</time>
      </trkpt>
      <trkpt lat="42.63963" lon="1.71253">
        <ele>1903.599976</ele>
        <time>2017-11-02T07:51:59Z</time>
      </trkpt>
      <trkpt lat="42.63962" lon="1.71265">
        <ele>1904.599976</ele>
        <time>2017-11-02T07:52:11Z</time>
      </trkpt>
      <trkpt lat="42.63961" lon="1.71277">
        <ele>1905.800049</ele>
        <time>2017-11-02T07:52:25Z</time>
      </trkpt>
      <trkpt lat="42.63959" lon="1.71289">
        <ele>1906.800049</ele>
        <time>2017-11-02T07:52:37Z</time>
      </trkpt>
      <trkpt lat="42.63957" lon="1.71302">
        <ele>1907.699951</ele>
        <time>2017-11-02T07:52:49Z</time>
      </trkpt>
      <trkpt lat="42.63955" lon="1.71314">
        <ele>1908.800049</ele>
        <time>2017-11-02T07:53:01Z</time>
      </trkpt>
      <trkpt lat="42.63956" lon="1.71327">
        <ele>1910</ele>
        <time>2017-11-02T07:53:14Z</time>
      </trkpt>
      <trkpt lat="42.63956" lon="1.71339">
        <ele>1911</ele>
        <time>2017-11-02T07:53:27Z</time>
      </trkpt>
      <trkpt lat="42.63958" lon="1.71352">
        <ele>1911.800049</ele>
        <time>2017-11-02T07:53:38Z</time>
      </trkpt>
      <trkpt lat="42.63966" lon="1.71357">
        <ele>1912.800049</ele>
        <time>2017-11-02T07:53:51Z</time>
      </trkpt>
      <trkpt lat="42.63972" lon="1.71367">
        <ele>1913.800049</ele>
        <time>2017-11-02T07:54:00Z</time>
      </trkpt>
      <trkpt lat="42.63977" lon="1.71378">
        <ele>1915.199951</ele>
        <time>2017-11-02T07:54:12Z</time>
      </trkpt>
      <trkpt lat="42.63978" lon="1.7139">
        <ele>1916.099976</ele>
        <time>2017-11-02T07:54:21Z</time>
      </trkpt>
      <trkpt lat="42.63979" lon="1.71403">
        <ele>1917.099976</ele>
        <time>2017-11-02T07:54:29Z</time>
      </trkpt>
      <trkpt lat="42.63979" lon="1.71416">
        <ele>1918.099976</ele>
        <time>2017-11-02T07:54:39Z</time>
      </trkpt>
      <trkpt lat="42.63979" lon="1.71429">
        <ele>1918.900024</ele>
        <time>2017-11-02T07:54:48Z</time>
      </trkpt>
      <trkpt lat="42.63979" lon="1.71442">
        <ele>1919.5</ele>
        <time>2017-11-02T07:55:09Z</time>
      </trkpt>
      <trkpt lat="42.63975" lon="1.71454">
        <ele>1919.699951</ele>
        <time>2017-11-02T07:55:18Z</time>
      </trkpt>
      <trkpt lat="42.63972" lon="1.71466">
        <ele>1919.800049</ele>
        <time>2017-11-02T07:55:27Z</time>
      </trkpt>
      <trkpt lat="42.63973" lon="1.71478">
        <ele>1920.5</ele>
        <time>2017-11-02T07:55:38Z</time>
      </trkpt>
      <trkpt lat="42.6397" lon="1.7149">
        <ele>1920.900024</ele>
        <time>2017-11-02T07:55:50Z</time>
      </trkpt>
      <trkpt lat="42.63968" lon="1.71502">
        <ele>1921.199951</ele>
        <time>2017-11-02T07:56:01Z</time>
      </trkpt>
      <trkpt lat="42.63964" lon="1.71514">
        <ele>1922.199951</ele>
        <time>2017-11-02T07:56:12Z</time>
      </trkpt>
      <trkpt lat="42.63956" lon="1.71521">
        <ele>1922.300049</ele>
        <time>2017-11-02T07:56:22Z</time>
      </trkpt>
      <trkpt lat="42.63953" lon="1.71532">
        <ele>1922.900024</ele>
        <time>2017-11-02T07:56:34Z</time>
      </trkpt>
      <trkpt lat="42.63947" lon="1.71542">
        <ele>1923.199951</ele>
        <time>2017-11-02T07:56:45Z</time>
      </trkpt>
      <trkpt lat="42.63942" lon="1.71553">
        <ele>1923.400024</ele>
        <time>2017-11-02T07:56:53Z</time>
      </trkpt>
      <trkpt lat="42.6394" lon="1.71566">
        <ele>1924.300049</ele>
        <time>2017-11-02T07:57:06Z</time>
      </trkpt>
      <trkpt lat="42.63937" lon="1.71578">
        <ele>1925.099976</ele>
        <time>2017-11-02T07:57:14Z</time>
      </trkpt>
      <trkpt lat="42.63931" lon="1.71587">
        <ele>1925.099976</ele>
        <time>2017-11-02T07:57:24Z</time>
      </trkpt>
      <trkpt lat="42.63924" lon="1.71597">
        <ele>1924.900024</ele>
        <time>2017-11-02T07:57:35Z</time>
      </trkpt>
      <trkpt lat="42.63919" lon="1.71608">
        <ele>1925</ele>
        <time>2017-11-02T07:57:47Z</time>
      </trkpt>
      <trkpt lat="42.63911" lon="1.71616">
        <ele>1924.800049</ele>
        <time>2017-11-02T07:57:59Z</time>
      </trkpt>
      <trkpt lat="42.63907" lon="1.71627">
        <ele>1925.800049</ele>
        <time>2017-11-02T07:58:12Z</time>
      </trkpt>
      <trkpt lat="42.63905" lon="1.7164">
        <ele>1926.699951</ele>
        <time>2017-11-02T07:58:22Z</time>
      </trkpt>
      <trkpt lat="42.63903" lon="1.71654">
        <ele>1927.900024</ele>
        <time>2017-11-02T07:58:36Z</time>
      </trkpt>
      <trkpt lat="42.63899" lon="1.71665">
        <ele>1928.800049</ele>
        <time>2017-11-02T07:58:47Z</time>
      </trkpt>
      <trkpt lat="42.63896" lon="1.71678">
        <ele>1929.699951</ele>
        <time>2017-11-02T07:58:56Z</time>
      </trkpt>
      <trkpt lat="42.63898" lon="1.71691">
        <ele>1931.099976</ele>
        <time>2017-11-02T07:59:10Z</time>
      </trkpt>
      <trkpt lat="42.63894" lon="1.71703">
        <ele>1932</ele>
        <time>2017-11-02T07:59:28Z</time>
      </trkpt>
      <trkpt lat="42.63888" lon="1.71713">
        <ele>1932.599976</ele>
        <time>2017-11-02T07:59:40Z</time>
      </trkpt>
      <trkpt lat="42.63884" lon="1.71725">
        <ele>1933.099976</ele>
        <time>2017-11-02T07:59:52Z</time>
      </trkpt>
      <trkpt lat="42.6388" lon="1.71738">
        <ele>1933.599976</ele>
        <time>2017-11-02T08:00:01Z</time>
      </trkpt>
      <trkpt lat="42.63873" lon="1.71746">
        <ele>1933.5</ele>
        <time>2017-11-02T08:00:09Z</time>
      </trkpt>
      <trkpt lat="42.63869" lon="1.71758">
        <ele>1934.099976</ele>
        <time>2017-11-02T08:00:18Z</time>
      </trkpt>
      <trkpt lat="42.63865" lon="1.71769">
        <ele>1935.5</ele>
        <time>2017-11-02T08:00:30Z</time>
      </trkpt>
      <trkpt lat="42.63857" lon="1.71776">
        <ele>1935.5</ele>
        <time>2017-11-02T08:00:42Z</time>
      </trkpt>
      <trkpt lat="42.63847" lon="1.71782">
        <ele>1935</ele>
        <time>2017-11-02T08:00:54Z</time>
      </trkpt>
      <trkpt lat="42.63839" lon="1.71788">
        <ele>1934.199951</ele>
        <time>2017-11-02T08:01:01Z</time>
      </trkpt>
      <trkpt lat="42.63831" lon="1.71794">
        <ele>1933.800049</ele>
        <time>2017-11-02T08:01:10Z</time>
      </trkpt>
      <trkpt lat="42.63825" lon="1.71805">
        <ele>1934.900024</ele>
        <time>2017-11-02T08:01:20Z</time>
      </trkpt>
      <trkpt lat="42.63819" lon="1.71816">
        <ele>1936.5</ele>
        <time>2017-11-02T08:01:34Z</time>
      </trkpt>
      <trkpt lat="42.63812" lon="1.71824">
        <ele>1937.5</ele>
        <time>2017-11-02T08:01:44Z</time>
      </trkpt>
      <trkpt lat="42.63804" lon="1.71832">
        <ele>1938.199951</ele>
        <time>2017-11-02T08:01:52Z</time>
      </trkpt>
      <trkpt lat="42.63797" lon="1.71841">
        <ele>1939.300049</ele>
        <time>2017-11-02T08:02:03Z</time>
      </trkpt>
      <trkpt lat="42.63788" lon="1.71846">
        <ele>1940.300049</ele>
        <time>2017-11-02T08:02:13Z</time>
      </trkpt>
      <trkpt lat="42.63781" lon="1.71855">
        <ele>1941.199951</ele>
        <time>2017-11-02T08:02:25Z</time>
      </trkpt>
      <trkpt lat="42.63773" lon="1.71861">
        <ele>1941.599976</ele>
        <time>2017-11-02T08:02:35Z</time>
      </trkpt>
      <trkpt lat="42.63765" lon="1.71869">
        <ele>1942</ele>
        <time>2017-11-02T08:02:45Z</time>
      </trkpt>
      <trkpt lat="42.63757" lon="1.71876">
        <ele>1942.199951</ele>
        <time>2017-11-02T08:02:55Z</time>
      </trkpt>
      <trkpt lat="42.63749" lon="1.71881">
        <ele>1942</ele>
        <time>2017-11-02T08:03:05Z</time>
      </trkpt>
      <trkpt lat="42.63739" lon="1.71886">
        <ele>1942.5</ele>
        <time>2017-11-02T08:03:15Z</time>
      </trkpt>
      <trkpt lat="42.63732" lon="1.71894">
        <ele>1943.300049</ele>
        <time>2017-11-02T08:03:30Z</time>
      </trkpt>
      <trkpt lat="42.63725" lon="1.71902">
        <ele>1943.900024</ele>
        <time>2017-11-02T08:03:44Z</time>
      </trkpt>
      <trkpt lat="42.63715" lon="1.71903">
        <ele>1944.099976</ele>
        <time>2017-11-02T08:03:55Z</time>
      </trkpt>
      <trkpt lat="42.63706" lon="1.71904">
        <ele>1944.199951</ele>
        <time>2017-11-02T08:04:06Z</time>
      </trkpt>
      <trkpt lat="42.63696" lon="1.71905">
        <ele>1944.300049</ele>
        <time>2017-11-02T08:04:16Z</time>
      </trkpt>
      <trkpt lat="42.63686" lon="1.71906">
        <ele>1944.300049</ele>
        <time>2017-11-02T08:04:27Z</time>
      </trkpt>
      <trkpt lat="42.63677" lon="1.71909">
        <ele>1944.300049</ele>
        <time>2017-11-02T08:04:40Z</time>
      </trkpt>
      <trkpt lat="42.63668" lon="1.71912">
        <ele>1944.199951</ele>
        <time>2017-11-02T08:04:50Z</time>
      </trkpt>
      <trkpt lat="42.63659" lon="1.71918">
        <ele>1944.400024</ele>
        <time>2017-11-02T08:05:00Z</time>
      </trkpt>
      <trkpt lat="42.6365" lon="1.71922">
        <ele>1945.800049</ele>
        <time>2017-11-02T08:05:12Z</time>
      </trkpt>
      <trkpt lat="42.63641" lon="1.71927">
        <ele>1947</ele>
        <time>2017-11-02T08:05:24Z</time>
      </trkpt>
      <trkpt lat="42.63632" lon="1.71932">
        <ele>1948.099976</ele>
        <time>2017-11-02T08:05:34Z</time>
      </trkpt>
      <trkpt lat="42.63624" lon="1.71937">
        <ele>1949.199951</ele>
        <time>2017-11-02T08:05:43Z</time>
      </trkpt>
      <trkpt lat="42.63615" lon="1.71941">
        <ele>1950.199951</ele>
        <time>2017-11-02T08:05:53Z</time>
      </trkpt>
      <trkpt lat="42.63606" lon="1.71945">
        <ele>1951.099976</ele>
        <time>2017-11-02T08:06:05Z</time>
      </trkpt>
      <trkpt lat="42.63599" lon="1.71954">
        <ele>1952.199951</ele>
        <time>2017-11-02T08:06:19Z</time>
      </trkpt>
      <trkpt lat="42.63593" lon="1.71963">
        <ele>1953.099976</ele>
        <time>2017-11-02T08:06:31Z</time>
      </trkpt>
      <trkpt lat="42.63586" lon="1.71971">
        <ele>1954</ele>
        <time>2017-11-02T08:06:42Z</time>
      </trkpt>
      <trkpt lat="42.63577" lon="1.71975">
        <ele>1954.699951</ele>
        <time>2017-11-02T08:06:57Z</time>
      </trkpt>
      <trkpt lat="42.6357" lon="1.71983">
        <ele>1955.300049</ele>
        <time>2017-11-02T08:07:08Z</time>
      </trkpt>
      <trkpt lat="42.63561" lon="1.71989">
        <ele>1955.900024</ele>
        <time>2017-11-02T08:07:17Z</time>
      </trkpt>
      <trkpt lat="42.63552" lon="1.71994">
        <ele>1956.5</ele>
        <time>2017-11-02T08:07:29Z</time>
      </trkpt>
      <trkpt lat="42.63543" lon="1.71996">
        <ele>1956.800049</ele>
        <time>2017-11-02T08:07:40Z</time>
      </trkpt>
      <trkpt lat="42.63534" lon="1.72002">
        <ele>1957.199951</ele>
        <time>2017-11-02T08:07:48Z</time>
      </trkpt>
      <trkpt lat="42.63526" lon="1.72011">
        <ele>1958.400024</ele>
        <time>2017-11-02T08:07:58Z</time>
      </trkpt>
      <trkpt lat="42.63519" lon="1.72017">
        <ele>1959.5</ele>
        <time>2017-11-02T08:08:06Z</time>
      </trkpt>
      <trkpt lat="42.6351" lon="1.72022">
        <ele>1960.400024</ele>
        <time>2017-11-02T08:08:19Z</time>
      </trkpt>
      <trkpt lat="42.63501" lon="1.72025">
        <ele>1960.800049</ele>
        <time>2017-11-02T08:08:27Z</time>
      </trkpt>
      <trkpt lat="42.63492" lon="1.72028">
        <ele>1961.699951</ele>
        <time>2017-11-02T08:08:35Z</time>
      </trkpt>
      <trkpt lat="42.63482" lon="1.7203">
        <ele>1962.900024</ele>
        <time>2017-11-02T08:08:45Z</time>
      </trkpt>
      <trkpt lat="42.63474" lon="1.72034">
        <ele>1964</ele>
        <time>2017-11-02T08:08:54Z</time>
      </trkpt>
      <trkpt lat="42.63465" lon="1.72038">
        <ele>1965.099976</ele>
        <time>2017-11-02T08:09:06Z</time>
      </trkpt>
      <trkpt lat="42.63457" lon="1.72045">
        <ele>1965.900024</ele>
        <time>2017-11-02T08:09:15Z</time>
      </trkpt>
      <trkpt lat="42.63449" lon="1.72051">
        <ele>1966.599976</ele>
        <time>2017-11-02T08:09:24Z</time>
      </trkpt>
      <trkpt lat="42.63441" lon="1.7206">
        <ele>1967.099976</ele>
        <time>2017-11-02T08:09:33Z</time>
      </trkpt>
      <trkpt lat="42.63433" lon="1.72066">
        <ele>1967.400024</ele>
        <time>2017-11-02T08:09:44Z</time>
      </trkpt>
      <trkpt lat="42.63424" lon="1.72068">
        <ele>1967.599976</ele>
        <time>2017-11-02T08:09:54Z</time>
      </trkpt>
      <trkpt lat="42.63417" lon="1.72075">
        <ele>1967.5</ele>
        <time>2017-11-02T08:10:05Z</time>
      </trkpt>
      <trkpt lat="42.6341" lon="1.72084">
        <ele>1967</ele>
        <time>2017-11-02T08:10:15Z</time>
      </trkpt>
      <trkpt lat="42.63402" lon="1.72091">
        <ele>1967.300049</ele>
        <time>2017-11-02T08:10:23Z</time>
      </trkpt>
      <trkpt lat="42.63396" lon="1.72101">
        <ele>1968.099976</ele>
        <time>2017-11-02T08:10:32Z</time>
      </trkpt>
      <trkpt lat="42.6339" lon="1.7211">
        <ele>1968.900024</ele>
        <time>2017-11-02T08:10:42Z</time>
      </trkpt>
      <trkpt lat="42.63384" lon="1.72121">
        <ele>1969.5</ele>
        <time>2017-11-02T08:10:51Z</time>
      </trkpt>
      <trkpt lat="42.63378" lon="1.72131">
        <ele>1970</ele>
        <time>2017-11-02T08:10:59Z</time>
      </trkpt>
      <trkpt lat="42.63371" lon="1.72139">
        <ele>1970.300049</ele>
        <time>2017-11-02T08:11:08Z</time>
      </trkpt>
      <trkpt lat="42.63364" lon="1.7215">
        <ele>1970.400024</ele>
        <time>2017-11-02T08:11:15Z</time>
      </trkpt>
      <trkpt lat="42.63358" lon="1.72158">
        <ele>1970.300049</ele>
        <time>2017-11-02T08:11:32Z</time>
      </trkpt>
      <trkpt lat="42.63353" lon="1.7217">
        <ele>1970.5</ele>
        <time>2017-11-02T08:11:57Z</time>
      </trkpt>
      <trkpt lat="42.63358" lon="1.7218">
        <ele>1972.699951</ele>
        <time>2017-11-02T08:12:44Z</time>
      </trkpt>
      <trkpt lat="42.63352" lon="1.7219">
        <ele>1974</ele>
        <time>2017-11-02T08:13:00Z</time>
      </trkpt>
      <trkpt lat="42.63348" lon="1.72201">
        <ele>1974.900024</ele>
        <time>2017-11-02T08:13:32Z</time>
      </trkpt>
      <trkpt lat="42.63341" lon="1.7221">
        <ele>1975.599976</ele>
        <time>2017-11-02T08:13:52Z</time>
      </trkpt>
      <trkpt lat="42.63335" lon="1.72219">
        <ele>1975.699951</ele>
        <time>2017-11-02T08:14:12Z</time>
      </trkpt>
      <trkpt lat="42.63327" lon="1.72227">
        <ele>1976.800049</ele>
        <time>2017-11-02T08:14:31Z</time>
      </trkpt>
      <trkpt lat="42.63318" lon="1.72233">
        <ele>1978.400024</ele>
        <time>2017-11-02T08:14:53Z</time>
      </trkpt>
      <trkpt lat="42.63311" lon="1.72243">
        <ele>1980.099976</ele>
        <time>2017-11-02T08:15:09Z</time>
      </trkpt>
      <trkpt lat="42.63302" lon="1.72248">
        <ele>1981.699951</ele>
        <time>2017-11-02T08:15:25Z</time>
      </trkpt>
      <trkpt lat="42.63294" lon="1.72254">
        <ele>1983.400024</ele>
        <time>2017-11-02T08:15:40Z</time>
      </trkpt>
      <trkpt lat="42.63288" lon="1.72264">
        <ele>1985.400024</ele>
        <time>2017-11-02T08:16:00Z</time>
      </trkpt>
      <trkpt lat="42.6328" lon="1.72271">
        <ele>1987.800049</ele>
        <time>2017-11-02T08:16:16Z</time>
      </trkpt>
      <trkpt lat="42.63274" lon="1.72283">
        <ele>1990</ele>
        <time>2017-11-02T08:16:38Z</time>
      </trkpt>
      <trkpt lat="42.63268" lon="1.72294">
        <ele>1992.5</ele>
        <time>2017-11-02T08:16:52Z</time>
      </trkpt>
      <trkpt lat="42.63259" lon="1.72297">
        <ele>1993.5</ele>
        <time>2017-11-02T08:17:07Z</time>
      </trkpt>
      <trkpt lat="42.63251" lon="1.72301">
        <ele>1994.300049</ele>
        <time>2017-11-02T08:17:27Z</time>
      </trkpt>
      <trkpt lat="42.63242" lon="1.72299">
        <ele>1996</ele>
        <time>2017-11-02T08:17:42Z</time>
      </trkpt>
      <trkpt lat="42.63232" lon="1.72304">
        <ele>1998.900024</ele>
        <time>2017-11-02T08:18:04Z</time>
      </trkpt>
      <trkpt lat="42.63223" lon="1.72306">
        <ele>2002</ele>
        <time>2017-11-02T08:18:21Z</time>
      </trkpt>
      <trkpt lat="42.63214" lon="1.72312">
        <ele>2005.099976</ele>
        <time>2017-11-02T08:18:44Z</time>
      </trkpt>
      <trkpt lat="42.63215" lon="1.72325">
        <ele>2008.300049</ele>
        <time>2017-11-02T08:19:19Z</time>
      </trkpt>
      <trkpt lat="42.63213" lon="1.72337">
        <ele>2011.199951</ele>
        <time>2017-11-02T08:19:35Z</time>
      </trkpt>
      <trkpt lat="42.63209" lon="1.72348">
        <ele>2014.900024</ele>
        <time>2017-11-02T08:19:47Z</time>
      </trkpt>
      <trkpt lat="42.63209" lon="1.72361">
        <ele>2018.599976</ele>
        <time>2017-11-02T08:20:08Z</time>
      </trkpt>
      <trkpt lat="42.63206" lon="1.72374">
        <ele>2021.699951</ele>
        <time>2017-11-02T08:20:21Z</time>
      </trkpt>
      <trkpt lat="42.63206" lon="1.72387">
        <ele>2025.300049</ele>
        <time>2017-11-02T08:20:35Z</time>
      </trkpt>
      <trkpt lat="42.63201" lon="1.72397">
        <ele>2028.199951</ele>
        <time>2017-11-02T08:20:45Z</time>
      </trkpt>
      <trkpt lat="42.63196" lon="1.72408">
        <ele>2031.599976</ele>
        <time>2017-11-02T08:20:57Z</time>
      </trkpt>
      <trkpt lat="42.63189" lon="1.72416">
        <ele>2034.599976</ele>
        <time>2017-11-02T08:21:11Z</time>
      </trkpt>
      <trkpt lat="42.6318" lon="1.72421">
        <ele>2036.900024</ele>
        <time>2017-11-02T08:21:27Z</time>
      </trkpt>
      <trkpt lat="42.63174" lon="1.72431">
        <ele>2040</ele>
        <time>2017-11-02T08:21:52Z</time>
      </trkpt>
      <trkpt lat="42.63168" lon="1.72439">
        <ele>2043.199951</ele>
        <time>2017-11-02T08:22:08Z</time>
      </trkpt>
      <trkpt lat="42.6316" lon="1.72446">
        <ele>2045.699951</ele>
        <time>2017-11-02T08:22:22Z</time>
      </trkpt>
      <trkpt lat="42.63151" lon="1.7245">
        <ele>2047.800049</ele>
        <time>2017-11-02T08:22:36Z</time>
      </trkpt>
      <trkpt lat="42.63144" lon="1.72458">
        <ele>2050.5</ele>
        <time>2017-11-02T08:22:52Z</time>
      </trkpt>
      <trkpt lat="42.63137" lon="1.72465">
        <ele>2053</ele>
        <time>2017-11-02T08:23:07Z</time>
      </trkpt>
      <trkpt lat="42.63124" lon="1.72467">
        <ele>2054.300049</ele>
        <time>2017-11-02T08:23:39Z</time>
      </trkpt>
      <trkpt lat="42.63115" lon="1.72471">
        <ele>2056.300049</ele>
        <time>2017-11-02T08:23:55Z</time>
      </trkpt>
      <trkpt lat="42.63108" lon="1.72478">
        <ele>2058.300049</ele>
        <time>2017-11-02T08:24:10Z</time>
      </trkpt>
      <trkpt lat="42.631" lon="1.72485">
        <ele>2060.399902</ele>
        <time>2017-11-02T08:24:24Z</time>
      </trkpt>
      <trkpt lat="42.6309" lon="1.72487">
        <ele>2061.600098</ele>
        <time>2017-11-02T08:24:35Z</time>
      </trkpt>
      <trkpt lat="42.6308" lon="1.72492">
        <ele>2063.399902</ele>
        <time>2017-11-02T08:24:53Z</time>
      </trkpt>
      <trkpt lat="42.63075" lon="1.72504">
        <ele>2067.100098</ele>
        <time>2017-11-02T08:25:06Z</time>
      </trkpt>
      <trkpt lat="42.63071" lon="1.72516">
        <ele>2072.199951</ele>
        <time>2017-11-02T08:25:30Z</time>
      </trkpt>
      <trkpt lat="42.63066" lon="1.72526">
        <ele>2076.699951</ele>
        <time>2017-11-02T08:25:52Z</time>
      </trkpt>
      <trkpt lat="42.63057" lon="1.72531">
        <ele>2080.199951</ele>
        <time>2017-11-02T08:26:11Z</time>
      </trkpt>
      <trkpt lat="42.63048" lon="1.72532">
        <ele>2082.5</ele>
        <time>2017-11-02T08:26:28Z</time>
      </trkpt>
      <trkpt lat="42.63039" lon="1.72529">
        <ele>2083.399902</ele>
        <time>2017-11-02T08:26:44Z</time>
      </trkpt>
      <trkpt lat="42.6303" lon="1.7253">
        <ele>2085</ele>
        <time>2017-11-02T08:27:05Z</time>
      </trkpt>
      <trkpt lat="42.6302" lon="1.72527">
        <ele>2086.399902</ele>
        <time>2017-11-02T08:27:19Z</time>
      </trkpt>
      <trkpt lat="42.63011" lon="1.72529">
        <ele>2088.300049</ele>
        <time>2017-11-02T08:27:32Z</time>
      </trkpt>
      <trkpt lat="42.63003" lon="1.72535">
        <ele>2090.899902</ele>
        <time>2017-11-02T08:27:49Z</time>
      </trkpt>
      <trkpt lat="42.62997" lon="1.72546">
        <ele>2093.199951</ele>
        <time>2017-11-02T08:29:13Z</time>
      </trkpt>
      <trkpt lat="42.62994" lon="1.72557">
        <ele>2095.5</ele>
        <time>2017-11-02T08:29:24Z</time>
      </trkpt>
      <trkpt lat="42.6299" lon="1.72569">
        <ele>2097.600098</ele>
        <time>2017-11-02T08:29:35Z</time>
      </trkpt>
      <trkpt lat="42.62985" lon="1.72579">
        <ele>2099.5</ele>
        <time>2017-11-02T08:29:49Z</time>
      </trkpt>
      <trkpt lat="42.62987" lon="1.72592">
        <ele>2102</ele>
        <time>2017-11-02T08:30:06Z</time>
      </trkpt>
      <trkpt lat="42.62978" lon="1.72594">
        <ele>2103.5</ele>
        <time>2017-11-02T08:30:20Z</time>
      </trkpt>
      <trkpt lat="42.62969" lon="1.72591">
        <ele>2103.100098</ele>
        <time>2017-11-02T08:30:33Z</time>
      </trkpt>
      <trkpt lat="42.6296" lon="1.72591">
        <ele>2103.100098</ele>
        <time>2017-11-02T08:30:45Z</time>
      </trkpt>
      <trkpt lat="42.62953" lon="1.72582">
        <ele>2101.800049</ele>
        <time>2017-11-02T08:30:56Z</time>
      </trkpt>
      <trkpt lat="42.62943" lon="1.7258">
        <ele>2101.800049</ele>
        <time>2017-11-02T08:31:09Z</time>
      </trkpt>
      <trkpt lat="42.62934" lon="1.7258">
        <ele>2102.100098</ele>
        <time>2017-11-02T08:31:18Z</time>
      </trkpt>
      <trkpt lat="42.62926" lon="1.72586">
        <ele>2102.899902</ele>
        <time>2017-11-02T08:31:31Z</time>
      </trkpt>
      <trkpt lat="42.62916" lon="1.72585">
        <ele>2103.300049</ele>
        <time>2017-11-02T08:31:44Z</time>
      </trkpt>
      <trkpt lat="42.62907" lon="1.7259">
        <ele>2104.199951</ele>
        <time>2017-11-02T08:31:57Z</time>
      </trkpt>
      <trkpt lat="42.62898" lon="1.72596">
        <ele>2105.199951</ele>
        <time>2017-11-02T08:32:08Z</time>
      </trkpt>
      <trkpt lat="42.62891" lon="1.72603">
        <ele>2106.5</ele>
        <time>2017-11-02T08:32:17Z</time>
      </trkpt>
      <trkpt lat="42.62883" lon="1.72611">
        <ele>2107.899902</ele>
        <time>2017-11-02T08:32:26Z</time>
      </trkpt>
      <trkpt lat="42.62874" lon="1.72614">
        <ele>2108.600098</ele>
        <time>2017-11-02T08:32:33Z</time>
      </trkpt>
      <trkpt lat="42.62865" lon="1.7262">
        <ele>2109.399902</ele>
        <time>2017-11-02T08:32:40Z</time>
      </trkpt>
      <trkpt lat="42.62857" lon="1.72626">
        <ele>2110.300049</ele>
        <time>2017-11-02T08:32:51Z</time>
      </trkpt>
      <trkpt lat="42.62852" lon="1.72636">
        <ele>2111.5</ele>
        <time>2017-11-02T08:33:03Z</time>
      </trkpt>
      <trkpt lat="42.62844" lon="1.72643">
        <ele>2112.300049</ele>
        <time>2017-11-02T08:33:15Z</time>
      </trkpt>
      <trkpt lat="42.62838" lon="1.72653">
        <ele>2113.300049</ele>
        <time>2017-11-02T08:33:26Z</time>
      </trkpt>
      <trkpt lat="42.6283" lon="1.7266">
        <ele>2114</ele>
        <time>2017-11-02T08:33:35Z</time>
      </trkpt>
      <trkpt lat="42.62823" lon="1.72667">
        <ele>2114.5</ele>
        <time>2017-11-02T08:33:52Z</time>
      </trkpt>
      <trkpt lat="42.62818" lon="1.72678">
        <ele>2117.100098</ele>
        <time>2017-11-02T08:34:06Z</time>
      </trkpt>
      <trkpt lat="42.62811" lon="1.72687">
        <ele>2119.600098</ele>
        <time>2017-11-02T08:34:18Z</time>
      </trkpt>
      <trkpt lat="42.62803" lon="1.72693">
        <ele>2121.300049</ele>
        <time>2017-11-02T08:34:35Z</time>
      </trkpt>
      <trkpt lat="42.62795" lon="1.72698">
        <ele>2122.5</ele>
        <time>2017-11-02T08:34:49Z</time>
      </trkpt>
      <trkpt lat="42.62787" lon="1.72692">
        <ele>2121</ele>
        <time>2017-11-02T08:35:04Z</time>
      </trkpt>
      <trkpt lat="42.62779" lon="1.72686">
        <ele>2118.899902</ele>
        <time>2017-11-02T08:35:28Z</time>
      </trkpt>
      <trkpt lat="42.6277" lon="1.72688">
        <ele>2118.699951</ele>
        <time>2017-11-02T08:35:41Z</time>
      </trkpt>
      <trkpt lat="42.6276" lon="1.7269">
        <ele>2118.899902</ele>
        <time>2017-11-02T08:35:53Z</time>
      </trkpt>
      <trkpt lat="42.62751" lon="1.72692">
        <ele>2118.899902</ele>
        <time>2017-11-02T08:36:05Z</time>
      </trkpt>
      <trkpt lat="42.62742" lon="1.72695">
        <ele>2120</ele>
        <time>2017-11-02T08:36:19Z</time>
      </trkpt>
      <trkpt lat="42.62733" lon="1.72691">
        <ele>2120.399902</ele>
        <time>2017-11-02T08:36:31Z</time>
      </trkpt>
      <trkpt lat="42.62727" lon="1.72681">
        <ele>2119.199951</ele>
        <time>2017-11-02T08:36:43Z</time>
      </trkpt>
      <trkpt lat="42.62721" lon="1.72672">
        <ele>2118.100098</ele>
        <time>2017-11-02T08:36:54Z</time>
      </trkpt>
      <trkpt lat="42.62712" lon="1.72667">
        <ele>2118.300049</ele>
        <time>2017-11-02T08:37:05Z</time>
      </trkpt>
      <trkpt lat="42.62702" lon="1.72668">
        <ele>2119.800049</ele>
        <time>2017-11-02T08:37:17Z</time>
      </trkpt>
      <trkpt lat="42.62693" lon="1.72662">
        <ele>2120.899902</ele>
        <time>2017-11-02T08:37:33Z</time>
      </trkpt>
      <trkpt lat="42.62685" lon="1.72656">
        <ele>2122</ele>
        <time>2017-11-02T08:37:46Z</time>
      </trkpt>
      <trkpt lat="42.62676" lon="1.7265">
        <ele>2123.100098</ele>
        <time>2017-11-02T08:37:55Z</time>
      </trkpt>
      <trkpt lat="42.62668" lon="1.7264">
        <ele>2124.600098</ele>
        <time>2017-11-02T08:38:10Z</time>
      </trkpt>
      <trkpt lat="42.6266" lon="1.72633">
        <ele>2125.600098</ele>
        <time>2017-11-02T08:38:19Z</time>
      </trkpt>
      <trkpt lat="42.62651" lon="1.72629">
        <ele>2126.300049</ele>
        <time>2017-11-02T08:38:28Z</time>
      </trkpt>
      <trkpt lat="42.62641" lon="1.72627">
        <ele>2127.100098</ele>
        <time>2017-11-02T08:38:42Z</time>
      </trkpt>
      <trkpt lat="42.62632" lon="1.72624">
        <ele>2127.800049</ele>
        <time>2017-11-02T08:38:54Z</time>
      </trkpt>
      <trkpt lat="42.62622" lon="1.72627">
        <ele>2128.5</ele>
        <time>2017-11-02T08:39:07Z</time>
      </trkpt>
      <trkpt lat="42.62613" lon="1.72623">
        <ele>2129.199951</ele>
        <time>2017-11-02T08:39:24Z</time>
      </trkpt>
      <trkpt lat="42.62604" lon="1.72621">
        <ele>2130</ele>
        <time>2017-11-02T08:39:36Z</time>
      </trkpt>
      <trkpt lat="42.62593" lon="1.72617">
        <ele>2130</ele>
        <time>2017-11-02T08:39:45Z</time>
      </trkpt>
      <trkpt lat="42.62585" lon="1.72611">
        <ele>2131.899902</ele>
        <time>2017-11-02T08:39:55Z</time>
      </trkpt>
      <trkpt lat="42.62576" lon="1.72605">
        <ele>2132.399902</ele>
        <time>2017-11-02T08:40:09Z</time>
      </trkpt>
      <trkpt lat="42.62568" lon="1.72599">
        <ele>2132.300049</ele>
        <time>2017-11-02T08:40:21Z</time>
      </trkpt>
      <trkpt lat="42.62559" lon="1.72595">
        <ele>2132.100098</ele>
        <time>2017-11-02T08:40:36Z</time>
      </trkpt>
      <trkpt lat="42.6255" lon="1.7259">
        <ele>2131.899902</ele>
        <time>2017-11-02T08:40:53Z</time>
      </trkpt>
      <trkpt lat="42.62541" lon="1.72591">
        <ele>2131.199951</ele>
        <time>2017-11-02T08:41:08Z</time>
      </trkpt>
      <trkpt lat="42.62534" lon="1.72583">
        <ele>2131.199951</ele>
        <time>2017-11-02T08:41:21Z</time>
      </trkpt>
      <trkpt lat="42.62527" lon="1.72576">
        <ele>2131.300049</ele>
        <time>2017-11-02T08:41:34Z</time>
      </trkpt>
      <trkpt lat="42.62518" lon="1.72574">
        <ele>2131.199951</ele>
        <time>2017-11-02T08:41:42Z</time>
      </trkpt>
      <trkpt lat="42.62509" lon="1.72579">
        <ele>2130.199951</ele>
        <time>2017-11-02T08:41:54Z</time>
      </trkpt>
      <trkpt lat="42.625" lon="1.72583">
        <ele>2129.199951</ele>
        <time>2017-11-02T08:42:07Z</time>
      </trkpt>
      <trkpt lat="42.62491" lon="1.72583">
        <ele>2129</ele>
        <time>2017-11-02T08:42:19Z</time>
      </trkpt>
      <trkpt lat="42.62482" lon="1.72577">
        <ele>2129.300049</ele>
        <time>2017-11-02T08:42:35Z</time>
      </trkpt>
      <trkpt lat="42.62475" lon="1.72585">
        <ele>2129</ele>
        <time>2017-11-02T08:44:31Z</time>
      </trkpt>
      <trkpt lat="42.62468" lon="1.72576">
        <ele>2128.899902</ele>
        <time>2017-11-02T08:44:53Z</time>
      </trkpt>
      <trkpt lat="42.62459" lon="1.72575">
        <ele>2129.199951</ele>
        <time>2017-11-02T08:45:17Z</time>
      </trkpt>
      <trkpt lat="42.6245" lon="1.72573">
        <ele>2129.100098</ele>
        <time>2017-11-02T08:45:46Z</time>
      </trkpt>
      <trkpt lat="42.62441" lon="1.72569">
        <ele>2129.199951</ele>
        <time>2017-11-02T08:46:01Z</time>
      </trkpt>
      <trkpt lat="42.62432" lon="1.72568">
        <ele>2129.100098</ele>
        <time>2017-11-02T08:46:24Z</time>
      </trkpt>
      <trkpt lat="42.62423" lon="1.72565">
        <ele>2129</ele>
        <time>2017-11-02T08:46:43Z</time>
      </trkpt>
      <trkpt lat="42.62414" lon="1.72569">
        <ele>2129.199951</ele>
        <time>2017-11-02T08:47:01Z</time>
      </trkpt>
      <trkpt lat="42.62404" lon="1.72571">
        <ele>2131.699951</ele>
        <time>2017-11-02T08:47:25Z</time>
      </trkpt>
      <trkpt lat="42.62397" lon="1.72563">
        <ele>2134.100098</ele>
        <time>2017-11-02T08:47:51Z</time>
      </trkpt>
      <trkpt lat="42.62389" lon="1.72556">
        <ele>2136.600098</ele>
        <time>2017-11-02T08:48:18Z</time>
      </trkpt>
      <trkpt lat="42.6238" lon="1.72552">
        <ele>2139.5</ele>
        <time>2017-11-02T08:48:58Z</time>
      </trkpt>
      <trkpt lat="42.62371" lon="1.72555">
        <ele>2141.800049</ele>
        <time>2017-11-02T08:49:16Z</time>
      </trkpt>
      <trkpt lat="42.62373" lon="1.72542">
        <ele>2142.300049</ele>
        <time>2017-11-02T08:49:35Z</time>
      </trkpt>
      <trkpt lat="42.62373" lon="1.7253">
        <ele>2142.699951</ele>
        <time>2017-11-02T08:49:48Z</time>
      </trkpt>
      <trkpt lat="42.62366" lon="1.72523">
        <ele>2144.899902</ele>
        <time>2017-11-02T08:51:08Z</time>
      </trkpt>
      <trkpt lat="42.62357" lon="1.72518">
        <ele>2147.300049</ele>
        <time>2017-11-02T08:52:01Z</time>
      </trkpt>
      <trkpt lat="42.62348" lon="1.7252">
        <ele>2149.800049</ele>
        <time>2017-11-02T08:52:23Z</time>
      </trkpt>
      <trkpt lat="42.62349" lon="1.72507">
        <ele>2150.399902</ele>
        <time>2017-11-02T08:52:40Z</time>
      </trkpt>
      <trkpt lat="42.62342" lon="1.72497">
        <ele>2152.399902</ele>
        <time>2017-11-02T08:53:22Z</time>
      </trkpt>
      <trkpt lat="42.62336" lon="1.72507">
        <ele>2153.699951</ele>
        <time>2017-11-02T08:54:32Z</time>
      </trkpt>
      <trkpt lat="42.62333" lon="1.72519">
        <ele>2154.399902</ele>
        <time>2017-11-02T08:54:48Z</time>
      </trkpt>
      <trkpt lat="42.62327" lon="1.7253">
        <ele>2157.100098</ele>
        <time>2017-11-02T08:55:04Z</time>
      </trkpt>
      <trkpt lat="42.62316" lon="1.72535">
        <ele>2162</ele>
        <time>2017-11-02T08:56:27Z</time>
      </trkpt>
      <trkpt lat="42.62306" lon="1.72537">
        <ele>2169.800049</ele>
        <time>2017-11-02T08:57:12Z</time>
      </trkpt>
      <trkpt lat="42.62295" lon="1.72528">
        <ele>2177.5</ele>
        <time>2017-11-02T08:57:46Z</time>
      </trkpt>
      <trkpt lat="42.62293" lon="1.72516">
        <ele>2179.399902</ele>
        <time>2017-11-02T08:58:05Z</time>
      </trkpt>
      <trkpt lat="42.62288" lon="1.72506">
        <ele>2181.300049</ele>
        <time>2017-11-02T08:58:40Z</time>
      </trkpt>
      <trkpt lat="42.62284" lon="1.72518">
        <ele>2185</ele>
        <time>2017-11-02T08:59:05Z</time>
      </trkpt>
      <trkpt lat="42.62276" lon="1.72511">
        <ele>2189.5</ele>
        <time>2017-11-02T08:59:31Z</time>
      </trkpt>
      <trkpt lat="42.62275" lon="1.72524">
        <ele>2191.5</ele>
        <time>2017-11-02T09:00:19Z</time>
      </trkpt>
      <trkpt lat="42.62272" lon="1.72536">
        <ele>2195</ele>
        <time>2017-11-02T09:00:33Z</time>
      </trkpt>
      <trkpt lat="42.62273" lon="1.72551">
        <ele>2195.600098</ele>
        <time>2017-11-02T09:00:53Z</time>
      </trkpt>
      <trkpt lat="42.62263" lon="1.72549">
        <ele>2202.300049</ele>
        <time>2017-11-02T09:01:13Z</time>
      </trkpt>
      <trkpt lat="42.62259" lon="1.72538">
        <ele>2204.699951</ele>
        <time>2017-11-02T09:01:32Z</time>
      </trkpt>
      <trkpt lat="42.62251" lon="1.72531">
        <ele>2207.800049</ele>
        <time>2017-11-02T09:02:27Z</time>
      </trkpt>
      <trkpt lat="42.62248" lon="1.72519">
        <ele>2208.199951</ele>
        <time>2017-11-02T09:02:43Z</time>
      </trkpt>
      <trkpt lat="42.62244" lon="1.72507">
        <ele>2209</ele>
        <time>2017-11-02T09:02:58Z</time>
      </trkpt>
      <trkpt lat="42.62245" lon="1.7252">
        <ele>2209.899902</ele>
        <time>2017-11-02T09:03:32Z</time>
      </trkpt>
      <trkpt lat="42.62245" lon="1.72532">
        <ele>2212.399902</ele>
        <time>2017-11-02T09:03:45Z</time>
      </trkpt>
      <trkpt lat="42.62244" lon="1.72544">
        <ele>2215.5</ele>
        <time>2017-11-02T09:04:03Z</time>
      </trkpt>
      <trkpt lat="42.62244" lon="1.72557">
        <ele>2217.5</ele>
        <time>2017-11-02T09:04:18Z</time>
      </trkpt>
      <trkpt lat="42.6224" lon="1.72567">
        <ele>2221.699951</ele>
        <time>2017-11-02T09:04:34Z</time>
      </trkpt>
      <trkpt lat="42.62232" lon="1.72572">
        <ele>2228.5</ele>
        <time>2017-11-02T09:05:04Z</time>
      </trkpt>
      <trkpt lat="42.62229" lon="1.72557">
        <ele>2228.5</ele>
        <time>2017-11-02T09:05:28Z</time>
      </trkpt>
      <trkpt lat="42.6222" lon="1.72569">
        <ele>2234.100098</ele>
        <time>2017-11-02T09:06:40Z</time>
      </trkpt>
      <trkpt lat="42.6221" lon="1.72569">
        <ele>2242</ele>
        <time>2017-11-02T09:07:20Z</time>
      </trkpt>
      <trkpt lat="42.6221" lon="1.72556">
        <ele>2241.199951</ele>
        <time>2017-11-02T09:07:32Z</time>
      </trkpt>
      <trkpt lat="42.62208" lon="1.72544">
        <ele>2240.100098</ele>
        <time>2017-11-02T09:07:49Z</time>
      </trkpt>
      <trkpt lat="42.62201" lon="1.72552">
        <ele>2244.800049</ele>
        <time>2017-11-02T09:08:15Z</time>
      </trkpt>
      <trkpt lat="42.62193" lon="1.72559">
        <ele>2251.5</ele>
        <time>2017-11-02T09:08:39Z</time>
      </trkpt>
      <trkpt lat="42.62184" lon="1.72559">
        <ele>2257.399902</ele>
        <time>2017-11-02T09:08:52Z</time>
      </trkpt>
      <trkpt lat="42.62175" lon="1.72562">
        <ele>2263.899902</ele>
        <time>2017-11-02T09:09:06Z</time>
      </trkpt>
      <trkpt lat="42.62168" lon="1.72569">
        <ele>2270.5</ele>
        <time>2017-11-02T09:09:18Z</time>
      </trkpt>
      <trkpt lat="42.6216" lon="1.72575">
        <ele>2276.899902</ele>
        <time>2017-11-02T09:09:34Z</time>
      </trkpt>
      <trkpt lat="42.62151" lon="1.7258">
        <ele>2282.699951</ele>
        <time>2017-11-02T09:10:04Z</time>
      </trkpt>
      <trkpt lat="42.62143" lon="1.72587">
        <ele>2287.199951</ele>
        <time>2017-11-02T09:10:24Z</time>
      </trkpt>
      <trkpt lat="42.62133" lon="1.72594">
        <ele>2293.600098</ele>
        <time>2017-11-02T09:10:47Z</time>
      </trkpt>
      <trkpt lat="42.62124" lon="1.72599">
        <ele>2296.800049</ele>
        <time>2017-11-02T09:11:13Z</time>
      </trkpt>
      <trkpt lat="42.62115" lon="1.72602">
        <ele>2304</ele>
        <time>2017-11-02T09:11:29Z</time>
      </trkpt>
      <trkpt lat="42.6211" lon="1.72612">
        <ele>2308.100098</ele>
        <time>2017-11-02T09:11:44Z</time>
      </trkpt>
      <trkpt lat="42.62107" lon="1.72624">
        <ele>2310.5</ele>
        <time>2017-11-02T09:11:56Z</time>
      </trkpt>
      <trkpt lat="42.62106" lon="1.72637">
        <ele>2313</ele>
        <time>2017-11-02T09:12:06Z</time>
      </trkpt>
      <trkpt lat="42.62108" lon="1.72649">
        <ele>2314.199951</ele>
        <time>2017-11-02T09:12:19Z</time>
      </trkpt>
      <trkpt lat="42.62114" lon="1.72658">
        <ele>2313.699951</ele>
        <time>2017-11-02T09:12:30Z</time>
      </trkpt>
      <trkpt lat="42.6212" lon="1.72668">
        <ele>2313.199951</ele>
        <time>2017-11-02T09:12:42Z</time>
      </trkpt>
      <trkpt lat="42.62126" lon="1.72677">
        <ele>2312.899902</ele>
        <time>2017-11-02T09:12:58Z</time>
      </trkpt>
      <trkpt lat="42.62133" lon="1.72687">
        <ele>2312.600098</ele>
        <time>2017-11-02T09:13:09Z</time>
      </trkpt>
      <trkpt lat="42.62143" lon="1.7269">
        <ele>2311.199951</ele>
        <time>2017-11-02T09:13:19Z</time>
      </trkpt>
      <trkpt lat="42.62152" lon="1.72695">
        <ele>2309.600098</ele>
        <time>2017-11-02T09:13:33Z</time>
      </trkpt>
      <trkpt lat="42.62157" lon="1.72705">
        <ele>2309.899902</ele>
        <time>2017-11-02T09:13:43Z</time>
      </trkpt>
      <trkpt lat="42.62158" lon="1.72718">
        <ele>2311.899902</ele>
        <time>2017-11-02T09:13:55Z</time>
      </trkpt>
      <trkpt lat="42.62158" lon="1.7273">
        <ele>2314.899902</ele>
        <time>2017-11-02T09:14:05Z</time>
      </trkpt>
      <trkpt lat="42.62158" lon="1.72743">
        <ele>2317.600098</ele>
        <time>2017-11-02T09:14:19Z</time>
      </trkpt>
      <trkpt lat="42.6216" lon="1.72756">
        <ele>2320.800049</ele>
        <time>2017-11-02T09:14:34Z</time>
      </trkpt>
      <trkpt lat="42.62167" lon="1.72764">
        <ele>2322.899902</ele>
        <time>2017-11-02T09:14:56Z</time>
      </trkpt>
      <trkpt lat="42.62176" lon="1.72766">
        <ele>2320</ele>
        <time>2017-11-02T09:15:11Z</time>
      </trkpt>
      <trkpt lat="42.62184" lon="1.72774">
        <ele>2317.800049</ele>
        <time>2017-11-02T09:15:44Z</time>
      </trkpt>
      <trkpt lat="42.62188" lon="1.72786">
        <ele>2319.399902</ele>
        <time>2017-11-02T09:15:53Z</time>
      </trkpt>
      <trkpt lat="42.62194" lon="1.72796">
        <ele>2319.800049</ele>
        <time>2017-11-02T09:16:06Z</time>
      </trkpt>
      <trkpt lat="42.62198" lon="1.72806">
        <ele>2320.100098</ele>
        <time>2017-11-02T09:16:20Z</time>
      </trkpt>
      <trkpt lat="42.62197" lon="1.72819">
        <ele>2322.5</ele>
        <time>2017-11-02T09:16:36Z</time>
      </trkpt>
      <trkpt lat="42.62188" lon="1.72823">
        <ele>2327.699951</ele>
        <time>2017-11-02T09:16:47Z</time>
      </trkpt>
      <trkpt lat="42.6218" lon="1.72829">
        <ele>2332.399902</ele>
        <time>2017-11-02T09:16:53Z</time>
      </trkpt>
      <trkpt lat="42.62177" lon="1.7284">
        <ele>2338</ele>
        <time>2017-11-02T09:17:03Z</time>
      </trkpt>
      <trkpt lat="42.62178" lon="1.72854">
        <ele>2341.399902</ele>
        <time>2017-11-02T09:17:14Z</time>
      </trkpt>
      <trkpt lat="42.62185" lon="1.72863">
        <ele>2340.5</ele>
        <time>2017-11-02T09:17:30Z</time>
      </trkpt>
      <trkpt lat="42.62189" lon="1.72875">
        <ele>2340.199951</ele>
        <time>2017-11-02T09:17:44Z</time>
      </trkpt>
      <trkpt lat="42.62187" lon="1.72887">
        <ele>2343.199951</ele>
        <time>2017-11-02T09:18:00Z</time>
      </trkpt>
      <trkpt lat="42.6218" lon="1.72895">
        <ele>2348.899902</ele>
        <time>2017-11-02T09:18:08Z</time>
      </trkpt>
      <trkpt lat="42.62175" lon="1.72906">
        <ele>2357.399902</ele>
        <time>2017-11-02T09:18:36Z</time>
      </trkpt>
      <trkpt lat="42.62164" lon="1.72921">
        <ele>2363</ele>
        <time>2017-11-02T09:19:27Z</time>
      </trkpt>
      <trkpt lat="42.62159" lon="1.72932">
        <ele>2368.699951</ele>
        <time>2017-11-02T09:19:44Z</time>
      </trkpt>
      <trkpt lat="42.62156" lon="1.72944">
        <ele>2371.100098</ele>
        <time>2017-11-02T09:19:57Z</time>
      </trkpt>
      <trkpt lat="42.62157" lon="1.72958">
        <ele>2373.899902</ele>
        <time>2017-11-02T09:20:09Z</time>
      </trkpt>
      <trkpt lat="42.6215" lon="1.72966">
        <ele>2375.699951</ele>
        <time>2017-11-02T09:20:19Z</time>
      </trkpt>
      <trkpt lat="42.62145" lon="1.72977">
        <ele>2377</ele>
        <time>2017-11-02T09:20:31Z</time>
      </trkpt>
      <trkpt lat="42.62146" lon="1.72989">
        <ele>2379.699951</ele>
        <time>2017-11-02T09:20:41Z</time>
      </trkpt>
      <trkpt lat="42.6215" lon="1.73001">
        <ele>2383.600098</ele>
        <time>2017-11-02T09:20:52Z</time>
      </trkpt>
      <trkpt lat="42.62145" lon="1.73011">
        <ele>2385.399902</ele>
        <time>2017-11-02T09:21:14Z</time>
      </trkpt>
      <trkpt lat="42.62146" lon="1.73023">
        <ele>2386.800049</ele>
        <time>2017-11-02T09:21:44Z</time>
      </trkpt>
      <trkpt lat="42.62148" lon="1.73035">
        <ele>2390.300049</ele>
        <time>2017-11-02T09:22:08Z</time>
      </trkpt>
      <trkpt lat="42.62146" lon="1.73048">
        <ele>2391.399902</ele>
        <time>2017-11-02T09:22:38Z</time>
      </trkpt>
      <trkpt lat="42.62143" lon="1.7306">
        <ele>2394.300049</ele>
        <time>2017-11-02T09:23:00Z</time>
      </trkpt>
      <trkpt lat="42.62135" lon="1.73071">
        <ele>2395.600098</ele>
        <time>2017-11-02T09:23:22Z</time>
      </trkpt>
      <trkpt lat="42.62128" lon="1.7308">
        <ele>2397.199951</ele>
        <time>2017-11-02T09:23:35Z</time>
      </trkpt>
      <trkpt lat="42.62122" lon="1.7309">
        <ele>2399.600098</ele>
        <time>2017-11-02T09:24:02Z</time>
      </trkpt>
      <trkpt lat="42.62118" lon="1.73102">
        <ele>2401</ele>
        <time>2017-11-02T09:24:29Z</time>
      </trkpt>
      <trkpt lat="42.62121" lon="1.73121">
        <ele>2407.399902</ele>
        <time>2017-11-02T09:25:29Z</time>
      </trkpt>
      <trkpt lat="42.6212" lon="1.73135">
        <ele>2414.300049</ele>
        <time>2017-11-02T09:26:09Z</time>
      </trkpt>
      <trkpt lat="42.6212" lon="1.73148">
        <ele>2419.199951</ele>
        <time>2017-11-02T09:26:25Z</time>
      </trkpt>
      <trkpt lat="42.62124" lon="1.73164">
        <ele>2424.399902</ele>
        <time>2017-11-02T09:27:03Z</time>
      </trkpt>
      <trkpt lat="42.62132" lon="1.73171">
        <ele>2429.5</ele>
        <time>2017-11-02T09:27:40Z</time>
      </trkpt>
      <trkpt lat="42.62148" lon="1.7316">
        <ele>2429</ele>
        <time>2017-11-02T09:28:43Z</time>
      </trkpt>
      <trkpt lat="42.62156" lon="1.73167">
        <ele>2430.699951</ele>
        <time>2017-11-02T09:29:14Z</time>
      </trkpt>
      <trkpt lat="42.62166" lon="1.73167">
        <ele>2434.600098</ele>
        <time>2017-11-02T09:29:41Z</time>
      </trkpt>
      <trkpt lat="42.62172" lon="1.73179">
        <ele>2433.5</ele>
        <time>2017-11-02T09:30:12Z</time>
      </trkpt>
      <trkpt lat="42.62171" lon="1.73194">
        <ele>2438.199951</ele>
        <time>2017-11-02T09:30:43Z</time>
      </trkpt>
      <trkpt lat="42.62175" lon="1.73209">
        <ele>2442.399902</ele>
        <time>2017-11-02T09:31:41Z</time>
      </trkpt>
      <trkpt lat="42.62193" lon="1.73224">
        <ele>2438</ele>
        <time>2017-11-02T09:32:59Z</time>
      </trkpt>
      <trkpt lat="42.622" lon="1.73239">
        <ele>2439.699951</ele>
        <time>2017-11-02T09:33:46Z</time>
      </trkpt>
      <trkpt lat="42.62209" lon="1.73246">
        <ele>2437.699951</ele>
        <time>2017-11-02T09:33:56Z</time>
      </trkpt>
      <trkpt lat="42.62219" lon="1.73249">
        <ele>2434.100098</ele>
        <time>2017-11-02T09:34:20Z</time>
      </trkpt>
      <trkpt lat="42.62225" lon="1.73258">
        <ele>2434.699951</ele>
        <time>2017-11-02T09:34:37Z</time>
      </trkpt>
      <trkpt lat="42.62232" lon="1.73267">
        <ele>2435.199951</ele>
        <time>2017-11-02T09:35:06Z</time>
      </trkpt>
      <trkpt lat="42.62236" lon="1.73278">
        <ele>2437.399902</ele>
        <time>2017-11-02T09:35:17Z</time>
      </trkpt>
      <trkpt lat="42.62241" lon="1.73288">
        <ele>2440</ele>
        <time>2017-11-02T09:35:30Z</time>
      </trkpt>
      <trkpt lat="42.62244" lon="1.733">
        <ele>2444</ele>
        <time>2017-11-02T09:35:51Z</time>
      </trkpt>
      <trkpt lat="42.62248" lon="1.73312">
        <ele>2448.399902</ele>
        <time>2017-11-02T09:36:06Z</time>
      </trkpt>
      <trkpt lat="42.62246" lon="1.73325">
        <ele>2452.699951</ele>
        <time>2017-11-02T09:38:11Z</time>
      </trkpt>
      <trkpt lat="42.62251" lon="1.73338">
        <ele>2457.199951</ele>
        <time>2017-11-02T09:38:19Z</time>
      </trkpt>
      <trkpt lat="42.62251" lon="1.73351">
        <ele>2458.100098</ele>
        <time>2017-11-02T09:38:27Z</time>
      </trkpt>
      <trkpt lat="42.62255" lon="1.73363">
        <ele>2458</ele>
        <time>2017-11-02T09:38:37Z</time>
      </trkpt>
      <trkpt lat="42.62263" lon="1.73369">
        <ele>2455.399902</ele>
        <time>2017-11-02T09:38:49Z</time>
      </trkpt>
      <trkpt lat="42.62265" lon="1.73356">
        <ele>2453</ele>
        <time>2017-11-02T09:39:44Z</time>
      </trkpt>
      <trkpt lat="42.62268" lon="1.73343">
        <ele>2450.199951</ele>
        <time>2017-11-02T09:39:53Z</time>
      </trkpt>
      <trkpt lat="42.62263" lon="1.73357">
        <ele>2451</ele>
        <time>2017-11-02T09:41:48Z</time>
      </trkpt>
      <trkpt lat="42.62279" lon="1.73367">
        <ele>2449</ele>
        <time>2017-11-02T09:43:25Z</time>
      </trkpt>
      <trkpt lat="42.62287" lon="1.73374">
        <ele>2446.5</ele>
        <time>2017-11-02T09:43:33Z</time>
      </trkpt>
      <trkpt lat="42.62295" lon="1.73383">
        <ele>2445.199951</ele>
        <time>2017-11-02T09:43:43Z</time>
      </trkpt>
      <trkpt lat="42.62303" lon="1.73389">
        <ele>2443.800049</ele>
        <time>2017-11-02T09:43:53Z</time>
      </trkpt>
      <trkpt lat="42.6231" lon="1.73399">
        <ele>2444.199951</ele>
        <time>2017-11-02T09:44:00Z</time>
      </trkpt>
      <trkpt lat="42.62315" lon="1.7341">
        <ele>2446</ele>
        <time>2017-11-02T09:44:08Z</time>
      </trkpt>
      <trkpt lat="42.62322" lon="1.7342">
        <ele>2447.699951</ele>
        <time>2017-11-02T09:44:17Z</time>
      </trkpt>
      <trkpt lat="42.62328" lon="1.7343">
        <ele>2448.399902</ele>
        <time>2017-11-02T09:44:29Z</time>
      </trkpt>
      <trkpt lat="42.62334" lon="1.73439">
        <ele>2449.100098</ele>
        <time>2017-11-02T09:44:41Z</time>
      </trkpt>
      <trkpt lat="42.62343" lon="1.73442">
        <ele>2450.100098</ele>
        <time>2017-11-02T09:44:57Z</time>
      </trkpt>
      <trkpt lat="42.62351" lon="1.7345">
        <ele>2451.699951</ele>
        <time>2017-11-02T09:45:26Z</time>
      </trkpt>
      <trkpt lat="42.62358" lon="1.73458">
        <ele>2454.100098</ele>
        <time>2017-11-02T09:45:41Z</time>
      </trkpt>
      <trkpt lat="42.62354" lon="1.7347">
        <ele>2457.199951</ele>
        <time>2017-11-02T09:46:33Z</time>
      </trkpt>
      <trkpt lat="42.62359" lon="1.73479">
        <ele>2461.199951</ele>
        <time>2017-11-02T09:46:56Z</time>
      </trkpt>
      <trkpt lat="42.62369" lon="1.73483">
        <ele>2463.300049</ele>
        <time>2017-11-02T09:47:07Z</time>
      </trkpt>
      <trkpt lat="42.62377" lon="1.73487">
        <ele>2466.5</ele>
        <time>2017-11-02T09:47:22Z</time>
      </trkpt>
      <trkpt lat="42.62379" lon="1.735">
        <ele>2471.199951</ele>
        <time>2017-11-02T09:47:41Z</time>
      </trkpt>
      <trkpt lat="42.62382" lon="1.73513">
        <ele>2477.100098</ele>
        <time>2017-11-02T09:47:58Z</time>
      </trkpt>
      <trkpt lat="42.62384" lon="1.73526">
        <ele>2486.800049</ele>
        <time>2017-11-02T09:48:10Z</time>
      </trkpt>
      <trkpt lat="42.62396" lon="1.73558">
        <ele>2507</ele>
        <time>2017-11-02T09:49:56Z</time>
      </trkpt>
      <trkpt lat="42.62397" lon="1.73582">
        <ele>2522.899902</ele>
        <time>2017-11-02T09:51:36Z</time>
      </trkpt>
      <trkpt lat="42.62402" lon="1.73609">
        <ele>2540</ele>
        <time>2017-11-02T09:53:09Z</time>
      </trkpt>
      <trkpt lat="42.62413" lon="1.73635">
        <ele>2558</ele>
        <time>2017-11-02T09:54:25Z</time>
      </trkpt>
      <trkpt lat="42.62429" lon="1.73653">
        <ele>2573</ele>
        <time>2017-11-02T09:56:31Z</time>
      </trkpt>
      <trkpt lat="42.62433" lon="1.73664">
        <ele>2583.899902</ele>
        <time>2017-11-02T09:56:53Z</time>
      </trkpt>
      <trkpt lat="42.62436" lon="1.73677">
        <ele>2588.5</ele>
        <time>2017-11-02T09:57:14Z</time>
      </trkpt>
      <trkpt lat="42.62472" lon="1.73711">
        <ele>2616</ele>
        <time>2017-11-02T10:03:51Z</time>
      </trkpt>
      <trkpt lat="42.62485" lon="1.73706">
        <ele>2629.699951</ele>
        <time>2017-11-02T10:05:48Z</time>
      </trkpt>
      <trkpt lat="42.62489" lon="1.73721">
        <ele>2638</ele>
        <time>2017-11-02T10:06:14Z</time>
      </trkpt>
      <trkpt lat="42.62481" lon="1.73714">
        <ele>2633.899902</ele>
        <time>2017-11-02T10:06:49Z</time>
      </trkpt>
      <trkpt lat="42.6249" lon="1.73711">
        <ele>2636.100098</ele>
        <time>2017-11-02T10:07:17Z</time>
      </trkpt>
      <trkpt lat="42.62512" lon="1.73729">
        <ele>2651</ele>
        <time>2017-11-02T10:10:16Z</time>
      </trkpt>
      <trkpt lat="42.62513" lon="1.73742">
        <ele>2659.800049</ele>
        <time>2017-11-02T10:12:09Z</time>
      </trkpt>
      <trkpt lat="42.62524" lon="1.73739">
        <ele>2665.100098</ele>
        <time>2017-11-02T10:14:59Z</time>
      </trkpt>
      <trkpt lat="42.62524" lon="1.73752">
        <ele>2671.300049</ele>
        <time>2017-11-02T10:15:10Z</time>
      </trkpt>
      <trkpt lat="42.62536" lon="1.73757">
        <ele>2678</ele>
        <time>2017-11-02T10:18:07Z</time>
      </trkpt>
      <trkpt lat="42.62545" lon="1.73761">
        <ele>2684.300049</ele>
        <time>2017-11-02T10:18:39Z</time>
      </trkpt>
      <trkpt lat="42.62556" lon="1.73774">
        <ele>2695</ele>
        <time>2017-11-02T10:20:52Z</time>
      </trkpt>
      <trkpt lat="42.62575" lon="1.73795">
        <ele>2711</ele>
        <time>2017-11-02T10:23:54Z</time>
      </trkpt>
      <trkpt lat="42.62583" lon="1.73806">
        <ele>2723.300049</ele>
        <time>2017-11-02T10:24:46Z</time>
      </trkpt>
      <trkpt lat="42.62591" lon="1.7381">
        <ele>2730.5</ele>
        <time>2017-11-02T10:25:40Z</time>
      </trkpt>
      <trkpt lat="42.62596" lon="1.73833">
        <ele>2740</ele>
        <time>2017-11-02T10:26:57Z</time>
      </trkpt>
      <trkpt lat="42.626" lon="1.73822">
        <ele>2740.800049</ele>
        <time>2017-11-02T10:27:11Z</time>
      </trkpt>
      <trkpt lat="42.62614" lon="1.73825">
        <ele>2741.800049</ele>
        <time>2017-11-02T10:29:54Z</time>
      </trkpt>
      <trkpt lat="42.62623" lon="1.73825">
        <ele>2748.399902</ele>
        <time>2017-11-02T10:30:11Z</time>
      </trkpt>
      <trkpt lat="42.62632" lon="1.73826">
        <ele>2752.100098</ele>
        <time>2017-11-02T10:30:24Z</time>
      </trkpt>
      <trkpt lat="42.62641" lon="1.7383">
        <ele>2757.600098</ele>
        <time>2017-11-02T10:30:47Z</time>
      </trkpt>
      <trkpt lat="42.6265" lon="1.73829">
        <ele>2760.5</ele>
        <time>2017-11-02T10:30:59Z</time>
      </trkpt>
      <trkpt lat="42.62644" lon="1.73838">
        <ele>2761.800049</ele>
        <time>2017-11-02T10:31:59Z</time>
      </trkpt>
      <trkpt lat="42.62635" lon="1.73843">
        <ele>2758.199951</ele>
        <time>2017-11-02T10:32:21Z</time>
      </trkpt>
      <trkpt lat="42.62644" lon="1.73847">
        <ele>2760.100098</ele>
        <time>2017-11-02T10:33:13Z</time>
      </trkpt>
      <trkpt lat="42.6265" lon="1.73855">
        <ele>2761.800049</ele>
        <time>2017-11-02T10:34:09Z</time>
      </trkpt>
      <trkpt lat="42.62659" lon="1.7386">
        <ele>2763.699951</ele>
        <time>2017-11-02T10:34:27Z</time>
      </trkpt>
      <trkpt lat="42.62668" lon="1.73862">
        <ele>2766</ele>
        <time>2017-11-02T10:34:48Z</time>
      </trkpt>
      <trkpt lat="42.62686" lon="1.73861">
        <ele>2756.5</ele>
        <time>2017-11-02T10:36:03Z</time>
      </trkpt>
      <trkpt lat="42.62694" lon="1.73866">
        <ele>2745.699951</ele>
        <time>2017-11-02T10:36:44Z</time>
      </trkpt>
      <trkpt lat="42.62701" lon="1.73874">
        <ele>2739.600098</ele>
        <time>2017-11-02T10:38:17Z</time>
      </trkpt>
      <trkpt lat="42.6271" lon="1.73876">
        <ele>2732.899902</ele>
        <time>2017-11-02T10:38:50Z</time>
      </trkpt>
      <trkpt lat="42.6272" lon="1.73877">
        <ele>2727</ele>
        <time>2017-11-02T10:39:15Z</time>
      </trkpt>
      <trkpt lat="42.62729" lon="1.73877">
        <ele>2719.199951</ele>
        <time>2017-11-02T10:39:32Z</time>
      </trkpt>
      <trkpt lat="42.62737" lon="1.73881">
        <ele>2713.600098</ele>
        <time>2017-11-02T10:39:47Z</time>
      </trkpt>
      <trkpt lat="42.6274" lon="1.73867">
        <ele>2708.899902</ele>
        <time>2017-11-02T10:40:46Z</time>
      </trkpt>
      <trkpt lat="42.62746" lon="1.73855">
        <ele>2700</ele>
        <time>2017-11-02T10:41:12Z</time>
      </trkpt>
      <trkpt lat="42.62743" lon="1.73843">
        <ele>2698.100098</ele>
        <time>2017-11-02T10:41:50Z</time>
      </trkpt>
      <trkpt lat="42.62739" lon="1.7383">
        <ele>2698.699951</ele>
        <time>2017-11-02T10:42:21Z</time>
      </trkpt>
      <trkpt lat="42.62747" lon="1.73842">
        <ele>2695</ele>
        <time>2017-11-02T10:47:09Z</time>
      </trkpt>
      <trkpt lat="42.62755" lon="1.73854">
        <ele>2691.600098</ele>
        <time>2017-11-02T10:48:11Z</time>
      </trkpt>
      <trkpt lat="42.62742" lon="1.73873">
        <ele>2702</ele>
        <time>2017-11-02T10:49:01Z</time>
      </trkpt>
      <trkpt lat="42.62737" lon="1.73883">
        <ele>2710</ele>
        <time>2017-11-02T10:49:40Z</time>
      </trkpt>
      <trkpt lat="42.62735" lon="1.73896">
        <ele>2717.199951</ele>
        <time>2017-11-02T10:50:17Z</time>
      </trkpt>
      <trkpt lat="42.62742" lon="1.73888">
        <ele>2711.100098</ele>
        <time>2017-11-02T11:04:37Z</time>
      </trkpt>
      <trkpt lat="42.62752" lon="1.73888">
        <ele>2704.600098</ele>
        <time>2017-11-02T11:05:50Z</time>
      </trkpt>
      <trkpt lat="42.62761" lon="1.73885">
        <ele>2695.199951</ele>
        <time>2017-11-02T11:06:32Z</time>
      </trkpt>
      <trkpt lat="42.62744" lon="1.73885">
        <ele>2704</ele>
        <time>2017-11-02T11:42:20Z</time>
      </trkpt>
      <trkpt lat="42.62752" lon="1.73878">
        <ele>2702.5</ele>
        <time>2017-11-02T11:42:31Z</time>
      </trkpt>
      <trkpt lat="42.62761" lon="1.7388">
        <ele>2693.600098</ele>
        <time>2017-11-02T11:42:49Z</time>
      </trkpt>
      <trkpt lat="42.62769" lon="1.73876">
        <ele>2683.800049</ele>
        <time>2017-11-02T11:43:30Z</time>
      </trkpt>
      <trkpt lat="42.62775" lon="1.73886">
        <ele>2680.600098</ele>
        <time>2017-11-02T11:43:52Z</time>
      </trkpt>
      <trkpt lat="42.62781" lon="1.73895">
        <ele>2677.300049</ele>
        <time>2017-11-02T11:44:17Z</time>
      </trkpt>
      <trkpt lat="42.62788" lon="1.73886">
        <ele>2669</ele>
        <time>2017-11-02T11:44:50Z</time>
      </trkpt>
      <trkpt lat="42.62793" lon="1.73876">
        <ele>2660.600098</ele>
        <time>2017-11-02T11:46:34Z</time>
      </trkpt>
      <trkpt lat="42.62802" lon="1.73878">
        <ele>2651.600098</ele>
        <time>2017-11-02T11:47:00Z</time>
      </trkpt>
      <trkpt lat="42.62809" lon="1.73888">
        <ele>2649.100098</ele>
        <time>2017-11-02T11:47:29Z</time>
      </trkpt>
      <trkpt lat="42.62818" lon="1.73886">
        <ele>2641.300049</ele>
        <time>2017-11-02T11:47:40Z</time>
      </trkpt>
      <trkpt lat="42.62824" lon="1.73896">
        <ele>2635.5</ele>
        <time>2017-11-02T11:48:14Z</time>
      </trkpt>
      <trkpt lat="42.6282" lon="1.73908">
        <ele>2641.100098</ele>
        <time>2017-11-02T11:48:53Z</time>
      </trkpt>
      <trkpt lat="42.62818" lon="1.7392">
        <ele>2645.399902</ele>
        <time>2017-11-02T11:49:25Z</time>
      </trkpt>
      <trkpt lat="42.62813" lon="1.73931">
        <ele>2653.399902</ele>
        <time>2017-11-02T11:50:07Z</time>
      </trkpt>
      <trkpt lat="42.62824" lon="1.73937">
        <ele>2648.5</ele>
        <time>2017-11-02T11:50:20Z</time>
      </trkpt>
      <trkpt lat="42.62818" lon="1.73949">
        <ele>2644</ele>
        <time>2017-11-02T11:51:39Z</time>
      </trkpt>
      <trkpt lat="42.62825" lon="1.73956">
        <ele>2645</ele>
        <time>2017-11-02T11:51:57Z</time>
      </trkpt>
      <trkpt lat="42.62835" lon="1.73961">
        <ele>2638</ele>
        <time>2017-11-02T11:52:11Z</time>
      </trkpt>
      <trkpt lat="42.62844" lon="1.7396">
        <ele>2629.399902</ele>
        <time>2017-11-02T11:52:28Z</time>
      </trkpt>
      <trkpt lat="42.62836" lon="1.73953">
        <ele>2632.899902</ele>
        <time>2017-11-02T11:52:43Z</time>
      </trkpt>
      <trkpt lat="42.62847" lon="1.73955">
        <ele>2628.199951</ele>
        <time>2017-11-02T11:52:59Z</time>
      </trkpt>
      <trkpt lat="42.62854" lon="1.73964">
        <ele>2621.5</ele>
        <time>2017-11-02T11:53:14Z</time>
      </trkpt>
      <trkpt lat="42.62863" lon="1.73969">
        <ele>2615.600098</ele>
        <time>2017-11-02T11:53:33Z</time>
      </trkpt>
      <trkpt lat="42.62872" lon="1.73964">
        <ele>2607</ele>
        <time>2017-11-02T11:54:45Z</time>
      </trkpt>
      <trkpt lat="42.62881" lon="1.7396">
        <ele>2600.300049</ele>
        <time>2017-11-02T11:55:01Z</time>
      </trkpt>
      <trkpt lat="42.62881" lon="1.73947">
        <ele>2598.300049</ele>
        <time>2017-11-02T11:55:44Z</time>
      </trkpt>
      <trkpt lat="42.62889" lon="1.73952">
        <ele>2593.300049</ele>
        <time>2017-11-02T11:56:06Z</time>
      </trkpt>
      <trkpt lat="42.62898" lon="1.73955">
        <ele>2586.399902</ele>
        <time>2017-11-02T11:56:18Z</time>
      </trkpt>
      <trkpt lat="42.62906" lon="1.73961">
        <ele>2579.199951</ele>
        <time>2017-11-02T11:56:28Z</time>
      </trkpt>
      <trkpt lat="42.62915" lon="1.73963">
        <ele>2571.399902</ele>
        <time>2017-11-02T11:56:45Z</time>
      </trkpt>
      <trkpt lat="42.62916" lon="1.7395">
        <ele>2568.800049</ele>
        <time>2017-11-02T11:56:58Z</time>
      </trkpt>
      <trkpt lat="42.62924" lon="1.73954">
        <ele>2563.399902</ele>
        <time>2017-11-02T11:57:23Z</time>
      </trkpt>
      <trkpt lat="42.62934" lon="1.73948">
        <ele>2555.399902</ele>
        <time>2017-11-02T11:57:39Z</time>
      </trkpt>
      <trkpt lat="42.62924" lon="1.73942">
        <ele>2558.899902</ele>
        <time>2017-11-02T11:58:05Z</time>
      </trkpt>
      <trkpt lat="42.62922" lon="1.73956">
        <ele>2563.699951</ele>
        <time>2017-11-02T11:58:18Z</time>
      </trkpt>
      <trkpt lat="42.62922" lon="1.73969">
        <ele>2564.5</ele>
        <time>2017-11-02T11:58:27Z</time>
      </trkpt>
      <trkpt lat="42.62922" lon="1.73982">
        <ele>2563.699951</ele>
        <time>2017-11-02T11:58:36Z</time>
      </trkpt>
      <trkpt lat="42.62922" lon="1.73995">
        <ele>2562.100098</ele>
        <time>2017-11-02T11:59:03Z</time>
      </trkpt>
      <trkpt lat="42.62921" lon="1.74009">
        <ele>2562.899902</ele>
        <time>2017-11-02T11:59:35Z</time>
      </trkpt>
      <trkpt lat="42.62923" lon="1.74022">
        <ele>2562.800049</ele>
        <time>2017-11-02T11:59:43Z</time>
      </trkpt>
      <trkpt lat="42.6293" lon="1.7403">
        <ele>2556.300049</ele>
        <time>2017-11-02T12:00:04Z</time>
      </trkpt>
      <trkpt lat="42.62934" lon="1.7404">
        <ele>2550.699951</ele>
        <time>2017-11-02T12:00:19Z</time>
      </trkpt>
      <trkpt lat="42.62941" lon="1.74048">
        <ele>2544.199951</ele>
        <time>2017-11-02T12:00:47Z</time>
      </trkpt>
      <trkpt lat="42.62946" lon="1.74058">
        <ele>2539.899902</ele>
        <time>2017-11-02T12:01:01Z</time>
      </trkpt>
      <trkpt lat="42.62941" lon="1.74068">
        <ele>2541.399902</ele>
        <time>2017-11-02T12:01:09Z</time>
      </trkpt>
      <trkpt lat="42.62931" lon="1.7407">
        <ele>2551</ele>
        <time>2017-11-02T12:01:19Z</time>
      </trkpt>
      <trkpt lat="42.62924" lon="1.74079">
        <ele>2560</ele>
        <time>2017-11-02T12:01:30Z</time>
      </trkpt>
      <trkpt lat="42.62928" lon="1.7409">
        <ele>2557.300049</ele>
        <time>2017-11-02T12:01:47Z</time>
      </trkpt>
      <trkpt lat="42.62932" lon="1.74101">
        <ele>2552.300049</ele>
        <time>2017-11-02T12:01:59Z</time>
      </trkpt>
      <trkpt lat="42.62941" lon="1.741">
        <ele>2543.600098</ele>
        <time>2017-11-02T12:02:30Z</time>
      </trkpt>
      <trkpt lat="42.62946" lon="1.74112">
        <ele>2537.5</ele>
        <time>2017-11-02T12:03:22Z</time>
      </trkpt>
      <trkpt lat="42.62954" lon="1.741">
        <ele>2529.600098</ele>
        <time>2017-11-02T12:03:43Z</time>
      </trkpt>
      <trkpt lat="42.62959" lon="1.74112">
        <ele>2525.300049</ele>
        <time>2017-11-02T12:03:57Z</time>
      </trkpt>
      <trkpt lat="42.62962" lon="1.74124">
        <ele>2520.800049</ele>
        <time>2017-11-02T12:04:11Z</time>
      </trkpt>
      <trkpt lat="42.62967" lon="1.74112">
        <ele>2517.300049</ele>
        <time>2017-11-02T12:04:35Z</time>
      </trkpt>
      <trkpt lat="42.62975" lon="1.74117">
        <ele>2509.5</ele>
        <time>2017-11-02T12:05:18Z</time>
      </trkpt>
      <trkpt lat="42.62983" lon="1.74109">
        <ele>2501.699951</ele>
        <time>2017-11-02T12:05:35Z</time>
      </trkpt>
      <trkpt lat="42.62991" lon="1.74116">
        <ele>2493.699951</ele>
        <time>2017-11-02T12:06:07Z</time>
      </trkpt>
      <trkpt lat="42.63" lon="1.74112">
        <ele>2485.699951</ele>
        <time>2017-11-02T12:06:36Z</time>
      </trkpt>
      <trkpt lat="42.63009" lon="1.74115">
        <ele>2480</ele>
        <time>2017-11-02T12:07:01Z</time>
      </trkpt>
      <trkpt lat="42.63009" lon="1.74128">
        <ele>2480</ele>
        <time>2017-11-02T12:07:10Z</time>
      </trkpt>
      <trkpt lat="42.63012" lon="1.74116">
        <ele>2478.5</ele>
        <time>2017-11-02T12:07:30Z</time>
      </trkpt>
      <trkpt lat="42.63021" lon="1.74116">
        <ele>2474.199951</ele>
        <time>2017-11-02T12:07:50Z</time>
      </trkpt>
      <trkpt lat="42.6303" lon="1.74121">
        <ele>2470</ele>
        <time>2017-11-02T12:08:16Z</time>
      </trkpt>
      <trkpt lat="42.63037" lon="1.7413">
        <ele>2467.300049</ele>
        <time>2017-11-02T12:08:31Z</time>
      </trkpt>
      <trkpt lat="42.63042" lon="1.74119">
        <ele>2463.600098</ele>
        <time>2017-11-02T12:08:47Z</time>
      </trkpt>
      <trkpt lat="42.6305" lon="1.74114">
        <ele>2458.899902</ele>
        <time>2017-11-02T12:09:31Z</time>
      </trkpt>
      <trkpt lat="42.6306" lon="1.74113">
        <ele>2454.100098</ele>
        <time>2017-11-02T12:09:44Z</time>
      </trkpt>
      <trkpt lat="42.63067" lon="1.74121">
        <ele>2451.5</ele>
        <time>2017-11-02T12:09:56Z</time>
      </trkpt>
      <trkpt lat="42.63074" lon="1.74112">
        <ele>2447</ele>
        <time>2017-11-02T12:10:15Z</time>
      </trkpt>
      <trkpt lat="42.63079" lon="1.74102">
        <ele>2442.100098</ele>
        <time>2017-11-02T12:10:43Z</time>
      </trkpt>
      <trkpt lat="42.63087" lon="1.74095">
        <ele>2437.800049</ele>
        <time>2017-11-02T12:11:01Z</time>
      </trkpt>
      <trkpt lat="42.63096" lon="1.74099">
        <ele>2436.100098</ele>
        <time>2017-11-02T12:11:23Z</time>
      </trkpt>
      <trkpt lat="42.63104" lon="1.74091">
        <ele>2432.800049</ele>
        <time>2017-11-02T12:11:47Z</time>
      </trkpt>
      <trkpt lat="42.63112" lon="1.74088">
        <ele>2430</ele>
        <time>2017-11-02T12:12:07Z</time>
      </trkpt>
      <trkpt lat="42.63122" lon="1.74088">
        <ele>2427.600098</ele>
        <time>2017-11-02T12:12:24Z</time>
      </trkpt>
      <trkpt lat="42.6313" lon="1.74082">
        <ele>2425.300049</ele>
        <time>2017-11-02T12:12:39Z</time>
      </trkpt>
      <trkpt lat="42.63128" lon="1.7407">
        <ele>2425.699951</ele>
        <time>2017-11-02T12:12:51Z</time>
      </trkpt>
      <trkpt lat="42.63132" lon="1.74059">
        <ele>2425.699951</ele>
        <time>2017-11-02T12:13:01Z</time>
      </trkpt>
      <trkpt lat="42.63133" lon="1.74047">
        <ele>2426.100098</ele>
        <time>2017-11-02T12:13:16Z</time>
      </trkpt>
      <trkpt lat="42.63141" lon="1.74038">
        <ele>2425.300049</ele>
        <time>2017-11-02T12:13:31Z</time>
      </trkpt>
      <trkpt lat="42.63148" lon="1.7403">
        <ele>2424.399902</ele>
        <time>2017-11-02T12:13:43Z</time>
      </trkpt>
      <trkpt lat="42.63154" lon="1.7402">
        <ele>2423.899902</ele>
        <time>2017-11-02T12:13:56Z</time>
      </trkpt>
      <trkpt lat="42.63159" lon="1.74009">
        <ele>2423.5</ele>
        <time>2017-11-02T12:14:12Z</time>
      </trkpt>
      <trkpt lat="42.63166" lon="1.74002">
        <ele>2423.5</ele>
        <time>2017-11-02T12:14:27Z</time>
      </trkpt>
      <trkpt lat="42.63175" lon="1.74006">
        <ele>2421.199951</ele>
        <time>2017-11-02T12:14:38Z</time>
      </trkpt>
      <trkpt lat="42.63184" lon="1.74009">
        <ele>2418.699951</ele>
        <time>2017-11-02T12:14:56Z</time>
      </trkpt>
      <trkpt lat="42.63194" lon="1.74011">
        <ele>2416.300049</ele>
        <time>2017-11-02T12:15:06Z</time>
      </trkpt>
      <trkpt lat="42.632" lon="1.74021">
        <ele>2414.100098</ele>
        <time>2017-11-02T12:21:39Z</time>
      </trkpt>
      <trkpt lat="42.63209" lon="1.74022">
        <ele>2412.199951</ele>
        <time>2017-11-02T12:21:53Z</time>
      </trkpt>
      <trkpt lat="42.63219" lon="1.74024">
        <ele>2410.100098</ele>
        <time>2017-11-02T12:22:03Z</time>
      </trkpt>
      <trkpt lat="42.63229" lon="1.74024">
        <ele>2407.699951</ele>
        <time>2017-11-02T12:22:17Z</time>
      </trkpt>
      <trkpt lat="42.63238" lon="1.7402">
        <ele>2405.399902</ele>
        <time>2017-11-02T12:22:36Z</time>
      </trkpt>
      <trkpt lat="42.63248" lon="1.74018">
        <ele>2403.600098</ele>
        <time>2017-11-02T12:22:46Z</time>
      </trkpt>
      <trkpt lat="42.63257" lon="1.74017">
        <ele>2401.100098</ele>
        <time>2017-11-02T12:22:55Z</time>
      </trkpt>
      <trkpt lat="42.63265" lon="1.74011">
        <ele>2397</ele>
        <time>2017-11-02T12:23:10Z</time>
      </trkpt>
      <trkpt lat="42.63274" lon="1.74009">
        <ele>2393.800049</ele>
        <time>2017-11-02T12:23:20Z</time>
      </trkpt>
      <trkpt lat="42.63283" lon="1.74008">
        <ele>2390.100098</ele>
        <time>2017-11-02T12:23:30Z</time>
      </trkpt>
      <trkpt lat="42.63292" lon="1.74011">
        <ele>2386.899902</ele>
        <time>2017-11-02T12:23:38Z</time>
      </trkpt>
      <trkpt lat="42.63302" lon="1.74014">
        <ele>2383.399902</ele>
        <time>2017-11-02T12:23:48Z</time>
      </trkpt>
      <trkpt lat="42.63311" lon="1.74016">
        <ele>2379.600098</ele>
        <time>2017-11-02T12:24:01Z</time>
      </trkpt>
      <trkpt lat="42.63321" lon="1.74017">
        <ele>2376.100098</ele>
        <time>2017-11-02T12:24:12Z</time>
      </trkpt>
      <trkpt lat="42.6333" lon="1.74021">
        <ele>2372.899902</ele>
        <time>2017-11-02T12:24:22Z</time>
      </trkpt>
      <trkpt lat="42.6334" lon="1.74019">
        <ele>2368.899902</ele>
        <time>2017-11-02T12:24:36Z</time>
      </trkpt>
      <trkpt lat="42.63349" lon="1.74016">
        <ele>2364.300049</ele>
        <time>2017-11-02T12:24:54Z</time>
      </trkpt>
      <trkpt lat="42.63357" lon="1.74021">
        <ele>2361.399902</ele>
        <time>2017-11-02T12:25:06Z</time>
      </trkpt>
      <trkpt lat="42.63365" lon="1.74028">
        <ele>2359.100098</ele>
        <time>2017-11-02T12:25:15Z</time>
      </trkpt>
      <trkpt lat="42.63374" lon="1.74034">
        <ele>2356</ele>
        <time>2017-11-02T12:25:26Z</time>
      </trkpt>
      <trkpt lat="42.63383" lon="1.74039">
        <ele>2353.5</ele>
        <time>2017-11-02T12:25:41Z</time>
      </trkpt>
      <trkpt lat="42.63386" lon="1.74027">
        <ele>2350</ele>
        <time>2017-11-02T12:25:53Z</time>
      </trkpt>
      <trkpt lat="42.63378" lon="1.7402">
        <ele>2350.699951</ele>
        <time>2017-11-02T12:26:02Z</time>
      </trkpt>
      <trkpt lat="42.63379" lon="1.74008">
        <ele>2350.100098</ele>
        <time>2017-11-02T12:26:33Z</time>
      </trkpt>
      <trkpt lat="42.63388" lon="1.74009">
        <ele>2346.199951</ele>
        <time>2017-11-02T12:26:45Z</time>
      </trkpt>
      <trkpt lat="42.63398" lon="1.74009">
        <ele>2341.600098</ele>
        <time>2017-11-02T12:26:56Z</time>
      </trkpt>
      <trkpt lat="42.63407" lon="1.74013">
        <ele>2338.300049</ele>
        <time>2017-11-02T12:27:07Z</time>
      </trkpt>
      <trkpt lat="42.63417" lon="1.74014">
        <ele>2334</ele>
        <time>2017-11-02T12:27:26Z</time>
      </trkpt>
      <trkpt lat="42.63426" lon="1.7402">
        <ele>2332.100098</ele>
        <time>2017-11-02T12:27:38Z</time>
      </trkpt>
      <trkpt lat="42.63433" lon="1.74028">
        <ele>2331.100098</ele>
        <time>2017-11-02T12:27:52Z</time>
      </trkpt>
      <trkpt lat="42.63442" lon="1.74026">
        <ele>2328.199951</ele>
        <time>2017-11-02T12:28:12Z</time>
      </trkpt>
      <trkpt lat="42.63451" lon="1.74023">
        <ele>2325.100098</ele>
        <time>2017-11-02T12:28:30Z</time>
      </trkpt>
      <trkpt lat="42.63459" lon="1.74029">
        <ele>2323.199951</ele>
        <time>2017-11-02T12:28:41Z</time>
      </trkpt>
      <trkpt lat="42.63468" lon="1.74034">
        <ele>2321.399902</ele>
        <time>2017-11-02T12:28:49Z</time>
      </trkpt>
      <trkpt lat="42.63476" lon="1.74041">
        <ele>2319.600098</ele>
        <time>2017-11-02T12:29:01Z</time>
      </trkpt>
      <trkpt lat="42.63485" lon="1.7404">
        <ele>2317.100098</ele>
        <time>2017-11-02T12:29:22Z</time>
      </trkpt>
      <trkpt lat="42.63494" lon="1.74039">
        <ele>2314.199951</ele>
        <time>2017-11-02T12:29:37Z</time>
      </trkpt>
      <trkpt lat="42.63502" lon="1.74045">
        <ele>2312.600098</ele>
        <time>2017-11-02T12:29:48Z</time>
      </trkpt>
      <trkpt lat="42.63511" lon="1.74051">
        <ele>2313.199951</ele>
        <time>2017-11-02T12:29:56Z</time>
      </trkpt>
      <trkpt lat="42.63511" lon="1.74037">
        <ele>2312.100098</ele>
        <time>2017-11-02T12:30:14Z</time>
      </trkpt>
      <trkpt lat="42.63511" lon="1.74024">
        <ele>2309.800049</ele>
        <time>2017-11-02T12:30:26Z</time>
      </trkpt>
      <trkpt lat="42.63517" lon="1.74015">
        <ele>2308.399902</ele>
        <time>2017-11-02T12:30:41Z</time>
      </trkpt>
      <trkpt lat="42.63526" lon="1.7402">
        <ele>2309</ele>
        <time>2017-11-02T12:30:58Z</time>
      </trkpt>
      <trkpt lat="42.63534" lon="1.74024">
        <ele>2310.199951</ele>
        <time>2017-11-02T12:31:11Z</time>
      </trkpt>
      <trkpt lat="42.63543" lon="1.74028">
        <ele>2311</ele>
        <time>2017-11-02T12:31:22Z</time>
      </trkpt>
      <trkpt lat="42.63553" lon="1.74028">
        <ele>2311.899902</ele>
        <time>2017-11-02T12:32:23Z</time>
      </trkpt>
      <trkpt lat="42.63562" lon="1.74025">
        <ele>2311.699951</ele>
        <time>2017-11-02T12:32:35Z</time>
      </trkpt>
      <trkpt lat="42.63569" lon="1.74017">
        <ele>2311.300049</ele>
        <time>2017-11-02T12:33:00Z</time>
      </trkpt>
      <trkpt lat="42.63576" lon="1.74009">
        <ele>2310.5</ele>
        <time>2017-11-02T12:33:10Z</time>
      </trkpt>
      <trkpt lat="42.63585" lon="1.74003">
        <ele>2310.699951</ele>
        <time>2017-11-02T12:33:24Z</time>
      </trkpt>
      <trkpt lat="42.63589" lon="1.7399">
        <ele>2309.600098</ele>
        <time>2017-11-02T12:33:41Z</time>
      </trkpt>
      <trkpt lat="42.63594" lon="1.73979">
        <ele>2309.100098</ele>
        <time>2017-11-02T12:33:55Z</time>
      </trkpt>
      <trkpt lat="42.636" lon="1.73967">
        <ele>2308.5</ele>
        <time>2017-11-02T12:34:17Z</time>
      </trkpt>
      <trkpt lat="42.63603" lon="1.73956">
        <ele>2307.100098</ele>
        <time>2017-11-02T12:34:37Z</time>
      </trkpt>
      <trkpt lat="42.63601" lon="1.73944">
        <ele>2303.199951</ele>
        <time>2017-11-02T12:34:54Z</time>
      </trkpt>
      <trkpt lat="42.63607" lon="1.73934">
        <ele>2302.300049</ele>
        <time>2017-11-02T12:35:10Z</time>
      </trkpt>
      <trkpt lat="42.63609" lon="1.73922">
        <ele>2300.300049</ele>
        <time>2017-11-02T12:35:24Z</time>
      </trkpt>
      <trkpt lat="42.63609" lon="1.73909">
        <ele>2297.199951</ele>
        <time>2017-11-02T12:35:38Z</time>
      </trkpt>
      <trkpt lat="42.63612" lon="1.73897">
        <ele>2295.199951</ele>
        <time>2017-11-02T12:35:51Z</time>
      </trkpt>
      <trkpt lat="42.63617" lon="1.73886">
        <ele>2294.800049</ele>
        <time>2017-11-02T12:36:06Z</time>
      </trkpt>
      <trkpt lat="42.63621" lon="1.73874">
        <ele>2293.600098</ele>
        <time>2017-11-02T12:36:18Z</time>
      </trkpt>
      <trkpt lat="42.6362" lon="1.73861">
        <ele>2290.800049</ele>
        <time>2017-11-02T12:36:29Z</time>
      </trkpt>
      <trkpt lat="42.6362" lon="1.73848">
        <ele>2287.600098</ele>
        <time>2017-11-02T12:36:43Z</time>
      </trkpt>
      <trkpt lat="42.63622" lon="1.73836">
        <ele>2285.100098</ele>
        <time>2017-11-02T12:36:56Z</time>
      </trkpt>
      <trkpt lat="42.63619" lon="1.73824">
        <ele>2282</ele>
        <time>2017-11-02T12:37:15Z</time>
      </trkpt>
      <trkpt lat="42.63623" lon="1.73812">
        <ele>2281.199951</ele>
        <time>2017-11-02T12:37:24Z</time>
      </trkpt>
      <trkpt lat="42.63631" lon="1.73804">
        <ele>2282.300049</ele>
        <time>2017-11-02T12:37:34Z</time>
      </trkpt>
      <trkpt lat="42.63636" lon="1.73794">
        <ele>2283.199951</ele>
        <time>2017-11-02T12:37:47Z</time>
      </trkpt>
      <trkpt lat="42.63637" lon="1.7378">
        <ele>2281.800049</ele>
        <time>2017-11-02T12:38:02Z</time>
      </trkpt>
      <trkpt lat="42.63634" lon="1.73768">
        <ele>2279.5</ele>
        <time>2017-11-02T12:38:17Z</time>
      </trkpt>
      <trkpt lat="42.63635" lon="1.73755">
        <ele>2278.100098</ele>
        <time>2017-11-02T12:38:23Z</time>
      </trkpt>
      <trkpt lat="42.63641" lon="1.73747">
        <ele>2278.199951</ele>
        <time>2017-11-02T12:38:34Z</time>
      </trkpt>
      <trkpt lat="42.6364" lon="1.73734">
        <ele>2276.600098</ele>
        <time>2017-11-02T12:38:48Z</time>
      </trkpt>
      <trkpt lat="42.63642" lon="1.73722">
        <ele>2275.300049</ele>
        <time>2017-11-02T12:39:01Z</time>
      </trkpt>
      <trkpt lat="42.63644" lon="1.73709">
        <ele>2274.300049</ele>
        <time>2017-11-02T12:39:07Z</time>
      </trkpt>
      <trkpt lat="42.63647" lon="1.73696">
        <ele>2273.100098</ele>
        <time>2017-11-02T12:39:15Z</time>
      </trkpt>
      <trkpt lat="42.63648" lon="1.73683">
        <ele>2271.399902</ele>
        <time>2017-11-02T12:39:25Z</time>
      </trkpt>
      <trkpt lat="42.63649" lon="1.73671">
        <ele>2270.300049</ele>
        <time>2017-11-02T12:39:35Z</time>
      </trkpt>
      <trkpt lat="42.63649" lon="1.73657">
        <ele>2268.199951</ele>
        <time>2017-11-02T12:39:50Z</time>
      </trkpt>
      <trkpt lat="42.63648" lon="1.73645">
        <ele>2267</ele>
        <time>2017-11-02T12:40:00Z</time>
      </trkpt>
      <trkpt lat="42.63649" lon="1.73632">
        <ele>2265.800049</ele>
        <time>2017-11-02T12:40:09Z</time>
      </trkpt>
      <trkpt lat="42.63648" lon="1.73619">
        <ele>2264.100098</ele>
        <time>2017-11-02T12:40:34Z</time>
      </trkpt>
      <trkpt lat="42.63651" lon="1.73607">
        <ele>2263.199951</ele>
        <time>2017-11-02T12:40:52Z</time>
      </trkpt>
      <trkpt lat="42.63651" lon="1.73594">
        <ele>2262.399902</ele>
        <time>2017-11-02T12:41:03Z</time>
      </trkpt>
      <trkpt lat="42.63655" lon="1.73583">
        <ele>2261.800049</ele>
        <time>2017-11-02T12:41:11Z</time>
      </trkpt>
      <trkpt lat="42.63659" lon="1.73572">
        <ele>2261.899902</ele>
        <time>2017-11-02T12:41:19Z</time>
      </trkpt>
      <trkpt lat="42.63664" lon="1.73561">
        <ele>2262.5</ele>
        <time>2017-11-02T12:41:30Z</time>
      </trkpt>
      <trkpt lat="42.63666" lon="1.73549">
        <ele>2262.800049</ele>
        <time>2017-11-02T12:41:42Z</time>
      </trkpt>
      <trkpt lat="42.63672" lon="1.73539">
        <ele>2263.699951</ele>
        <time>2017-11-02T12:41:55Z</time>
      </trkpt>
      <trkpt lat="42.63677" lon="1.73528">
        <ele>2264.600098</ele>
        <time>2017-11-02T12:42:12Z</time>
      </trkpt>
      <trkpt lat="42.63676" lon="1.73516">
        <ele>2263.800049</ele>
        <time>2017-11-02T12:42:24Z</time>
      </trkpt>
      <trkpt lat="42.63673" lon="1.73504">
        <ele>2262.5</ele>
        <time>2017-11-02T12:42:36Z</time>
      </trkpt>
      <trkpt lat="42.63672" lon="1.73491">
        <ele>2261.199951</ele>
        <time>2017-11-02T12:42:44Z</time>
      </trkpt>
      <trkpt lat="42.63675" lon="1.73479">
        <ele>2260.5</ele>
        <time>2017-11-02T12:43:00Z</time>
      </trkpt>
      <trkpt lat="42.63673" lon="1.73466">
        <ele>2259.5</ele>
        <time>2017-11-02T12:43:16Z</time>
      </trkpt>
      <trkpt lat="42.63674" lon="1.73453">
        <ele>2258.199951</ele>
        <time>2017-11-02T12:43:24Z</time>
      </trkpt>
      <trkpt lat="42.63669" lon="1.73442">
        <ele>2256.399902</ele>
        <time>2017-11-02T12:43:37Z</time>
      </trkpt>
      <trkpt lat="42.63666" lon="1.73429">
        <ele>2254.399902</ele>
        <time>2017-11-02T12:43:47Z</time>
      </trkpt>
      <trkpt lat="42.6367" lon="1.73418">
        <ele>2254.100098</ele>
        <time>2017-11-02T12:43:56Z</time>
      </trkpt>
      <trkpt lat="42.63672" lon="1.73405">
        <ele>2253.199951</ele>
        <time>2017-11-02T12:44:06Z</time>
      </trkpt>
      <trkpt lat="42.63676" lon="1.73394">
        <ele>2252.5</ele>
        <time>2017-11-02T12:44:17Z</time>
      </trkpt>
      <trkpt lat="42.63673" lon="1.73381">
        <ele>2250.800049</ele>
        <time>2017-11-02T12:44:27Z</time>
      </trkpt>
      <trkpt lat="42.63672" lon="1.73369">
        <ele>2248.600098</ele>
        <time>2017-11-02T12:44:36Z</time>
      </trkpt>
      <trkpt lat="42.63671" lon="1.73357">
        <ele>2246.800049</ele>
        <time>2017-11-02T12:44:54Z</time>
      </trkpt>
      <trkpt lat="42.63674" lon="1.73344">
        <ele>2245.800049</ele>
        <time>2017-11-02T12:45:02Z</time>
      </trkpt>
      <trkpt lat="42.63676" lon="1.73332">
        <ele>2244.699951</ele>
        <time>2017-11-02T12:45:11Z</time>
      </trkpt>
      <trkpt lat="42.63678" lon="1.73319">
        <ele>2243.399902</ele>
        <time>2017-11-02T12:45:21Z</time>
      </trkpt>
      <trkpt lat="42.6368" lon="1.73306">
        <ele>2242</ele>
        <time>2017-11-02T12:45:33Z</time>
      </trkpt>
      <trkpt lat="42.63683" lon="1.73295">
        <ele>2241.100098</ele>
        <time>2017-11-02T12:45:42Z</time>
      </trkpt>
      <trkpt lat="42.63688" lon="1.73284">
        <ele>2240.800049</ele>
        <time>2017-11-02T12:45:57Z</time>
      </trkpt>
      <trkpt lat="42.63692" lon="1.73271">
        <ele>2240.199951</ele>
        <time>2017-11-02T12:46:08Z</time>
      </trkpt>
      <trkpt lat="42.63693" lon="1.73258">
        <ele>2238.800049</ele>
        <time>2017-11-02T12:46:19Z</time>
      </trkpt>
      <trkpt lat="42.63696" lon="1.73246">
        <ele>2237.899902</ele>
        <time>2017-11-02T12:46:30Z</time>
      </trkpt>
      <trkpt lat="42.63703" lon="1.73237">
        <ele>2238</ele>
        <time>2017-11-02T12:46:49Z</time>
      </trkpt>
      <trkpt lat="42.63708" lon="1.73227">
        <ele>2238.699951</ele>
        <time>2017-11-02T12:46:57Z</time>
      </trkpt>
      <trkpt lat="42.63712" lon="1.73216">
        <ele>2238.699951</ele>
        <time>2017-11-02T12:47:09Z</time>
      </trkpt>
      <trkpt lat="42.63716" lon="1.73204">
        <ele>2238.800049</ele>
        <time>2017-11-02T12:47:22Z</time>
      </trkpt>
      <trkpt lat="42.63719" lon="1.73192">
        <ele>2238.300049</ele>
        <time>2017-11-02T12:47:32Z</time>
      </trkpt>
      <trkpt lat="42.63723" lon="1.7318">
        <ele>2238.5</ele>
        <time>2017-11-02T12:47:51Z</time>
      </trkpt>
      <trkpt lat="42.63726" lon="1.73168">
        <ele>2238.100098</ele>
        <time>2017-11-02T12:47:59Z</time>
      </trkpt>
      <trkpt lat="42.63729" lon="1.73155">
        <ele>2237.899902</ele>
        <time>2017-11-02T12:48:08Z</time>
      </trkpt>
      <trkpt lat="42.63732" lon="1.73142">
        <ele>2237.600098</ele>
        <time>2017-11-02T12:48:18Z</time>
      </trkpt>
      <trkpt lat="42.63731" lon="1.73129">
        <ele>2236.300049</ele>
        <time>2017-11-02T12:48:29Z</time>
      </trkpt>
      <trkpt lat="42.63734" lon="1.73118">
        <ele>2236.199951</ele>
        <time>2017-11-02T12:48:38Z</time>
      </trkpt>
      <trkpt lat="42.63739" lon="1.73107">
        <ele>2236.600098</ele>
        <time>2017-11-02T12:48:48Z</time>
      </trkpt>
      <trkpt lat="42.63738" lon="1.73095">
        <ele>2235.699951</ele>
        <time>2017-11-02T12:48:58Z</time>
      </trkpt>
      <trkpt lat="42.63741" lon="1.73082">
        <ele>2235.199951</ele>
        <time>2017-11-02T12:49:08Z</time>
      </trkpt>
      <trkpt lat="42.63745" lon="1.7307">
        <ele>2235</ele>
        <time>2017-11-02T12:49:18Z</time>
      </trkpt>
      <trkpt lat="42.6375" lon="1.73059">
        <ele>2235</ele>
        <time>2017-11-02T12:49:29Z</time>
      </trkpt>
      <trkpt lat="42.63755" lon="1.73048">
        <ele>2234.100098</ele>
        <time>2017-11-02T12:49:49Z</time>
      </trkpt>
      <trkpt lat="42.63753" lon="1.73035">
        <ele>2232.5</ele>
        <time>2017-11-02T12:49:59Z</time>
      </trkpt>
      <trkpt lat="42.63754" lon="1.73022">
        <ele>2230.800049</ele>
        <time>2017-11-02T12:50:11Z</time>
      </trkpt>
      <trkpt lat="42.63756" lon="1.7301">
        <ele>2229.199951</ele>
        <time>2017-11-02T12:50:24Z</time>
      </trkpt>
      <trkpt lat="42.63755" lon="1.72997">
        <ele>2227.699951</ele>
        <time>2017-11-02T12:50:37Z</time>
      </trkpt>
      <trkpt lat="42.63755" lon="1.72984">
        <ele>2226.699951</ele>
        <time>2017-11-02T12:50:48Z</time>
      </trkpt>
      <trkpt lat="42.63755" lon="1.72971">
        <ele>2225.899902</ele>
        <time>2017-11-02T12:51:01Z</time>
      </trkpt>
      <trkpt lat="42.63754" lon="1.72958">
        <ele>2225</ele>
        <time>2017-11-02T12:51:13Z</time>
      </trkpt>
      <trkpt lat="42.63753" lon="1.72945">
        <ele>2224</ele>
        <time>2017-11-02T12:51:34Z</time>
      </trkpt>
      <trkpt lat="42.6375" lon="1.72933">
        <ele>2223.100098</ele>
        <time>2017-11-02T12:51:47Z</time>
      </trkpt>
      <trkpt lat="42.63749" lon="1.7292">
        <ele>2222.300049</ele>
        <time>2017-11-02T12:51:57Z</time>
      </trkpt>
      <trkpt lat="42.63751" lon="1.72907">
        <ele>2221.399902</ele>
        <time>2017-11-02T12:52:08Z</time>
      </trkpt>
      <trkpt lat="42.6375" lon="1.72895">
        <ele>2220.5</ele>
        <time>2017-11-02T12:52:20Z</time>
      </trkpt>
      <trkpt lat="42.6375" lon="1.72883">
        <ele>2219.399902</ele>
        <time>2017-11-02T12:52:29Z</time>
      </trkpt>
      <trkpt lat="42.63752" lon="1.7287">
        <ele>2218.300049</ele>
        <time>2017-11-02T12:53:02Z</time>
      </trkpt>
      <trkpt lat="42.63753" lon="1.72858">
        <ele>2217.5</ele>
        <time>2017-11-02T12:53:10Z</time>
      </trkpt>
      <trkpt lat="42.6375" lon="1.72846">
        <ele>2216.399902</ele>
        <time>2017-11-02T12:53:18Z</time>
      </trkpt>
      <trkpt lat="42.6375" lon="1.72833">
        <ele>2215.199951</ele>
        <time>2017-11-02T12:53:29Z</time>
      </trkpt>
      <trkpt lat="42.63747" lon="1.72821">
        <ele>2213.899902</ele>
        <time>2017-11-02T12:53:48Z</time>
      </trkpt>
      <trkpt lat="42.63745" lon="1.72808">
        <ele>2212.699951</ele>
        <time>2017-11-02T12:54:05Z</time>
      </trkpt>
      <trkpt lat="42.63747" lon="1.72796">
        <ele>2211.600098</ele>
        <time>2017-11-02T12:54:15Z</time>
      </trkpt>
      <trkpt lat="42.63749" lon="1.72784">
        <ele>2210.300049</ele>
        <time>2017-11-02T12:54:30Z</time>
      </trkpt>
      <trkpt lat="42.63753" lon="1.72772">
        <ele>2209.5</ele>
        <time>2017-11-02T12:54:38Z</time>
      </trkpt>
      <trkpt lat="42.63757" lon="1.7276">
        <ele>2208.300049</ele>
        <time>2017-11-02T12:54:47Z</time>
      </trkpt>
      <trkpt lat="42.63763" lon="1.7275">
        <ele>2207.199951</ele>
        <time>2017-11-02T12:54:56Z</time>
      </trkpt>
      <trkpt lat="42.63768" lon="1.72738">
        <ele>2205.699951</ele>
        <time>2017-11-02T12:55:05Z</time>
      </trkpt>
      <trkpt lat="42.63769" lon="1.72726">
        <ele>2203.699951</ele>
        <time>2017-11-02T12:55:16Z</time>
      </trkpt>
      <trkpt lat="42.6377" lon="1.72713">
        <ele>2202</ele>
        <time>2017-11-02T12:55:29Z</time>
      </trkpt>
      <trkpt lat="42.63771" lon="1.72699">
        <ele>2200.199951</ele>
        <time>2017-11-02T12:55:38Z</time>
      </trkpt>
      <trkpt lat="42.63773" lon="1.72687">
        <ele>2198.300049</ele>
        <time>2017-11-02T12:55:47Z</time>
      </trkpt>
      <trkpt lat="42.63778" lon="1.72676">
        <ele>2196.5</ele>
        <time>2017-11-02T12:55:57Z</time>
      </trkpt>
      <trkpt lat="42.63782" lon="1.72665">
        <ele>2194.800049</ele>
        <time>2017-11-02T12:56:07Z</time>
      </trkpt>
      <trkpt lat="42.63784" lon="1.72653">
        <ele>2193.5</ele>
        <time>2017-11-02T12:56:27Z</time>
      </trkpt>
      <trkpt lat="42.63787" lon="1.72641">
        <ele>2192.600098</ele>
        <time>2017-11-02T12:56:37Z</time>
      </trkpt>
      <trkpt lat="42.6379" lon="1.72628">
        <ele>2191.600098</ele>
        <time>2017-11-02T12:56:46Z</time>
      </trkpt>
      <trkpt lat="42.63793" lon="1.72615">
        <ele>2190.600098</ele>
        <time>2017-11-02T12:56:55Z</time>
      </trkpt>
      <trkpt lat="42.63796" lon="1.72603">
        <ele>2189.600098</ele>
        <time>2017-11-02T12:57:04Z</time>
      </trkpt>
      <trkpt lat="42.63801" lon="1.72593">
        <ele>2188.5</ele>
        <time>2017-11-02T12:57:21Z</time>
      </trkpt>
      <trkpt lat="42.63801" lon="1.7258">
        <ele>2187.100098</ele>
        <time>2017-11-02T12:57:48Z</time>
      </trkpt>
      <trkpt lat="42.6381" lon="1.72588">
        <ele>2187.800049</ele>
        <time>2017-11-02T12:58:11Z</time>
      </trkpt>
      <trkpt lat="42.63804" lon="1.72578">
        <ele>2185.899902</ele>
        <time>2017-11-02T12:59:48Z</time>
      </trkpt>
      <trkpt lat="42.63793" lon="1.72576">
        <ele>2185.300049</ele>
        <time>2017-11-02T12:59:57Z</time>
      </trkpt>
      <trkpt lat="42.63783" lon="1.72573">
        <ele>2184.800049</ele>
        <time>2017-11-02T13:00:06Z</time>
      </trkpt>
      <trkpt lat="42.63791" lon="1.72581">
        <ele>2185.699951</ele>
        <time>2017-11-02T13:00:21Z</time>
      </trkpt>
      <trkpt lat="42.63799" lon="1.7259">
        <ele>2187.5</ele>
        <time>2017-11-02T13:00:26Z</time>
      </trkpt>
      <trkpt lat="42.63807" lon="1.72597">
        <ele>2188.199951</ele>
        <time>2017-11-02T13:00:31Z</time>
      </trkpt>
      <trkpt lat="42.63816" lon="1.72604">
        <ele>2188.5</ele>
        <time>2017-11-02T13:00:35Z</time>
      </trkpt>
      <trkpt lat="42.63824" lon="1.72609">
        <ele>2188.699951</ele>
        <time>2017-11-02T13:00:39Z</time>
      </trkpt>
      <trkpt lat="42.63833" lon="1.72615">
        <ele>2188.800049</ele>
        <time>2017-11-02T13:00:45Z</time>
      </trkpt>
      <trkpt lat="42.63842" lon="1.72618">
        <ele>2189.699951</ele>
        <time>2017-11-02T13:00:49Z</time>
      </trkpt>
      <trkpt lat="42.63851" lon="1.72624">
        <ele>2191.399902</ele>
        <time>2017-11-02T13:00:54Z</time>
      </trkpt>
      <trkpt lat="42.63838" lon="1.72616">
        <ele>2191.5</ele>
        <time>2017-11-02T13:01:00Z</time>
      </trkpt>
      <trkpt lat="42.63829" lon="1.7261">
        <ele>2189.899902</ele>
        <time>2017-11-02T13:01:03Z</time>
      </trkpt>
      <trkpt lat="42.6382" lon="1.72602">
        <ele>2188.800049</ele>
        <time>2017-11-02T13:01:08Z</time>
      </trkpt>
      <trkpt lat="42.63828" lon="1.72608">
        <ele>2188.600098</ele>
        <time>2017-11-02T13:03:41Z</time>
      </trkpt>
      <trkpt lat="42.63841" lon="1.72609">
        <ele>2189.300049</ele>
        <time>2017-11-02T13:03:50Z</time>
      </trkpt>
      <trkpt lat="42.63846" lon="1.72598">
        <ele>2189.800049</ele>
        <time>2017-11-02T13:04:10Z</time>
      </trkpt>
      <trkpt lat="42.63837" lon="1.72603">
        <ele>2190.100098</ele>
        <time>2017-11-02T13:04:23Z</time>
      </trkpt>
      <trkpt lat="42.63829" lon="1.72599">
        <ele>2188</ele>
        <time>2017-11-02T13:04:29Z</time>
      </trkpt>
      <trkpt lat="42.6382" lon="1.72593">
        <ele>2188</ele>
        <time>2017-11-02T13:04:40Z</time>
      </trkpt>
      <trkpt lat="42.63811" lon="1.72588">
        <ele>2187</ele>
        <time>2017-11-02T13:04:54Z</time>
      </trkpt>
      <trkpt lat="42.63818" lon="1.72595">
        <ele>2188</ele>
        <time>2017-11-02T13:05:23Z</time>
      </trkpt>
      <trkpt lat="42.63825" lon="1.72604">
        <ele>2188.399902</ele>
        <time>2017-11-02T13:05:33Z</time>
      </trkpt>
      <trkpt lat="42.63834" lon="1.72611">
        <ele>2188.600098</ele>
        <time>2017-11-02T13:05:43Z</time>
      </trkpt>
      <trkpt lat="42.63843" lon="1.72613">
        <ele>2189.600098</ele>
        <time>2017-11-02T13:05:47Z</time>
      </trkpt>
      <trkpt lat="42.63854" lon="1.72619">
        <ele>2191.300049</ele>
        <time>2017-11-02T13:05:51Z</time>
      </trkpt>
      <trkpt lat="42.63864" lon="1.72623">
        <ele>2193.300049</ele>
        <time>2017-11-02T13:05:55Z</time>
      </trkpt>
      <trkpt lat="42.63874" lon="1.72629">
        <ele>2195.399902</ele>
        <time>2017-11-02T13:05:59Z</time>
      </trkpt>
      <trkpt lat="42.6386" lon="1.72629">
        <ele>2195.600098</ele>
        <time>2017-11-02T13:06:05Z</time>
      </trkpt>
      <trkpt lat="42.6385" lon="1.72631">
        <ele>2193.899902</ele>
        <time>2017-11-02T13:06:10Z</time>
      </trkpt>
      <trkpt lat="42.63841" lon="1.72634">
        <ele>2192.100098</ele>
        <time>2017-11-02T13:06:33Z</time>
      </trkpt>
      <trkpt lat="42.63835" lon="1.72625">
        <ele>2190.600098</ele>
        <time>2017-11-02T13:06:38Z</time>
      </trkpt>
      <trkpt lat="42.63828" lon="1.72615">
        <ele>2189.300049</ele>
        <time>2017-11-02T13:06:47Z</time>
      </trkpt>
      <trkpt lat="42.63824" lon="1.72604">
        <ele>2188.600098</ele>
        <time>2017-11-02T13:07:30Z</time>
      </trkpt>
      <trkpt lat="42.63833" lon="1.72598">
        <ele>2188.100098</ele>
        <time>2017-11-02T13:07:43Z</time>
      </trkpt>
      <trkpt lat="42.63824" lon="1.72591">
        <ele>2187.600098</ele>
        <time>2017-11-02T13:07:58Z</time>
      </trkpt>
      <trkpt lat="42.63833" lon="1.72595">
        <ele>2187.600098</ele>
        <time>2017-11-02T13:08:10Z</time>
      </trkpt>
      <trkpt lat="42.63826" lon="1.72587">
        <ele>2187.399902</ele>
        <time>2017-11-02T13:08:42Z</time>
      </trkpt>
      <trkpt lat="42.63818" lon="1.72581">
        <ele>2187</ele>
        <time>2017-11-02T13:08:53Z</time>
      </trkpt>
      <trkpt lat="42.63827" lon="1.72586">
        <ele>2187.199951</ele>
        <time>2017-11-02T13:09:06Z</time>
      </trkpt>
      <trkpt lat="42.63819" lon="1.72574">
        <ele>2186</ele>
        <time>2017-11-02T13:09:18Z</time>
      </trkpt>
      <trkpt lat="42.63809" lon="1.72572">
        <ele>2185.100098</ele>
        <time>2017-11-02T13:09:20Z</time>
      </trkpt>
      <trkpt lat="42.63802" lon="1.72565">
        <ele>2183.100098</ele>
        <time>2017-11-02T13:09:27Z</time>
      </trkpt>
      <trkpt lat="42.63811" lon="1.72565">
        <ele>2181.699951</ele>
        <time>2017-11-02T13:09:58Z</time>
      </trkpt>
      <trkpt lat="42.6382" lon="1.72571">
        <ele>2183.300049</ele>
        <time>2017-11-02T13:10:40Z</time>
      </trkpt>
      <trkpt lat="42.63829" lon="1.72572">
        <ele>2183.899902</ele>
        <time>2017-11-02T13:10:47Z</time>
      </trkpt>
      <trkpt lat="42.63838" lon="1.72574">
        <ele>2185</ele>
        <time>2017-11-02T13:10:59Z</time>
      </trkpt>
      <trkpt lat="42.63848" lon="1.72576">
        <ele>2187</ele>
        <time>2017-11-02T13:11:09Z</time>
      </trkpt>
      <trkpt lat="42.63858" lon="1.72576">
        <ele>2188.800049</ele>
        <time>2017-11-02T13:11:17Z</time>
      </trkpt>
      <trkpt lat="42.63867" lon="1.72573">
        <ele>2189.899902</ele>
        <time>2017-11-02T13:11:24Z</time>
      </trkpt>
      <trkpt lat="42.63876" lon="1.72572">
        <ele>2191</ele>
        <time>2017-11-02T13:11:31Z</time>
      </trkpt>
      <trkpt lat="42.63885" lon="1.72569">
        <ele>2192.399902</ele>
        <time>2017-11-02T13:11:41Z</time>
      </trkpt>
      <trkpt lat="42.63894" lon="1.72571">
        <ele>2194.100098</ele>
        <time>2017-11-02T13:11:48Z</time>
      </trkpt>
      <trkpt lat="42.63904" lon="1.7257">
        <ele>2195.699951</ele>
        <time>2017-11-02T13:11:55Z</time>
      </trkpt>
      <trkpt lat="42.63914" lon="1.72568">
        <ele>2197.5</ele>
        <time>2017-11-02T13:12:13Z</time>
      </trkpt>
      <trkpt lat="42.63923" lon="1.72566">
        <ele>2198.800049</ele>
        <time>2017-11-02T13:12:21Z</time>
      </trkpt>
      <trkpt lat="42.63932" lon="1.72562">
        <ele>2199.699951</ele>
        <time>2017-11-02T13:12:30Z</time>
      </trkpt>
      <trkpt lat="42.63942" lon="1.72563">
        <ele>2201.600098</ele>
        <time>2017-11-02T13:12:42Z</time>
      </trkpt>
      <trkpt lat="42.63948" lon="1.72554">
        <ele>2201.100098</ele>
        <time>2017-11-02T13:12:52Z</time>
      </trkpt>
      <trkpt lat="42.63954" lon="1.72545">
        <ele>2200</ele>
        <time>2017-11-02T13:13:00Z</time>
      </trkpt>
      <trkpt lat="42.63961" lon="1.72535">
        <ele>2198.600098</ele>
        <time>2017-11-02T13:13:10Z</time>
      </trkpt>
      <trkpt lat="42.63967" lon="1.72526">
        <ele>2197</ele>
        <time>2017-11-02T13:13:20Z</time>
      </trkpt>
      <trkpt lat="42.63973" lon="1.72517">
        <ele>2195.300049</ele>
        <time>2017-11-02T13:13:32Z</time>
      </trkpt>
      <trkpt lat="42.6398" lon="1.72506">
        <ele>2193.699951</ele>
        <time>2017-11-02T13:13:41Z</time>
      </trkpt>
      <trkpt lat="42.63984" lon="1.72494">
        <ele>2191.100098</ele>
        <time>2017-11-02T13:13:50Z</time>
      </trkpt>
      <trkpt lat="42.6399" lon="1.72483">
        <ele>2188.5</ele>
        <time>2017-11-02T13:13:59Z</time>
      </trkpt>
      <trkpt lat="42.63995" lon="1.72472">
        <ele>2185.899902</ele>
        <time>2017-11-02T13:14:08Z</time>
      </trkpt>
      <trkpt lat="42.64001" lon="1.72462">
        <ele>2183.600098</ele>
        <time>2017-11-02T13:14:19Z</time>
      </trkpt>
      <trkpt lat="42.64008" lon="1.72454">
        <ele>2180.699951</ele>
        <time>2017-11-02T13:14:36Z</time>
      </trkpt>
      <trkpt lat="42.64015" lon="1.72445">
        <ele>2178.699951</ele>
        <time>2017-11-02T13:14:48Z</time>
      </trkpt>
      <trkpt lat="42.64023" lon="1.72437">
        <ele>2176.5</ele>
        <time>2017-11-02T13:14:58Z</time>
      </trkpt>
      <trkpt lat="42.64031" lon="1.72429">
        <ele>2174.5</ele>
        <time>2017-11-02T13:15:07Z</time>
      </trkpt>
      <trkpt lat="42.6404" lon="1.72423">
        <ele>2173</ele>
        <time>2017-11-02T13:15:15Z</time>
      </trkpt>
      <trkpt lat="42.64048" lon="1.72417">
        <ele>2171.600098</ele>
        <time>2017-11-02T13:15:23Z</time>
      </trkpt>
      <trkpt lat="42.64058" lon="1.72413">
        <ele>2170.399902</ele>
        <time>2017-11-02T13:15:34Z</time>
      </trkpt>
      <trkpt lat="42.64067" lon="1.72408">
        <ele>2169.699951</ele>
        <time>2017-11-02T13:15:43Z</time>
      </trkpt>
      <trkpt lat="42.64076" lon="1.7241">
        <ele>2170.300049</ele>
        <time>2017-11-02T13:15:54Z</time>
      </trkpt>
      <trkpt lat="42.64084" lon="1.72404">
        <ele>2169.600098</ele>
        <time>2017-11-02T13:16:04Z</time>
      </trkpt>
      <trkpt lat="42.64094" lon="1.72398">
        <ele>2169.699951</ele>
        <time>2017-11-02T13:16:13Z</time>
      </trkpt>
      <trkpt lat="42.64104" lon="1.72397">
        <ele>2170.699951</ele>
        <time>2017-11-02T13:16:22Z</time>
      </trkpt>
      <trkpt lat="42.64114" lon="1.72399">
        <ele>2172.100098</ele>
        <time>2017-11-02T13:16:29Z</time>
      </trkpt>
      <trkpt lat="42.64123" lon="1.72401">
        <ele>2174.300049</ele>
        <time>2017-11-02T13:16:38Z</time>
      </trkpt>
      <trkpt lat="42.64132" lon="1.724">
        <ele>2175.699951</ele>
        <time>2017-11-02T13:16:49Z</time>
      </trkpt>
      <trkpt lat="42.64141" lon="1.72401">
        <ele>2177.199951</ele>
        <time>2017-11-02T13:16:59Z</time>
      </trkpt>
      <trkpt lat="42.6415" lon="1.72402">
        <ele>2179</ele>
        <time>2017-11-02T13:17:11Z</time>
      </trkpt>
      <trkpt lat="42.64159" lon="1.72402">
        <ele>2180.199951</ele>
        <time>2017-11-02T13:17:24Z</time>
      </trkpt>
      <trkpt lat="42.64165" lon="1.72392">
        <ele>2180.399902</ele>
        <time>2017-11-02T13:17:48Z</time>
      </trkpt>
      <trkpt lat="42.6417" lon="1.72381">
        <ele>2179.5</ele>
        <time>2017-11-02T13:17:59Z</time>
      </trkpt>
      <trkpt lat="42.64163" lon="1.72372">
        <ele>2177.5</ele>
        <time>2017-11-02T13:18:10Z</time>
      </trkpt>
      <trkpt lat="42.64157" lon="1.72359">
        <ele>2175</ele>
        <time>2017-11-02T13:18:19Z</time>
      </trkpt>
      <trkpt lat="42.64153" lon="1.72347">
        <ele>2171.899902</ele>
        <time>2017-11-02T13:18:33Z</time>
      </trkpt>
      <trkpt lat="42.64151" lon="1.72334">
        <ele>2169.699951</ele>
        <time>2017-11-02T13:18:41Z</time>
      </trkpt>
      <trkpt lat="42.64151" lon="1.72322">
        <ele>2167.100098</ele>
        <time>2017-11-02T13:18:52Z</time>
      </trkpt>
      <trkpt lat="42.64155" lon="1.7231">
        <ele>2165.899902</ele>
        <time>2017-11-02T13:19:02Z</time>
      </trkpt>
      <trkpt lat="42.64157" lon="1.72297">
        <ele>2164.5</ele>
        <time>2017-11-02T13:19:11Z</time>
      </trkpt>
      <trkpt lat="42.64156" lon="1.72284">
        <ele>2162.399902</ele>
        <time>2017-11-02T13:19:20Z</time>
      </trkpt>
      <trkpt lat="42.64156" lon="1.72271">
        <ele>2160.100098</ele>
        <time>2017-11-02T13:19:28Z</time>
      </trkpt>
      <trkpt lat="42.6416" lon="1.7226">
        <ele>2158.600098</ele>
        <time>2017-11-02T13:19:37Z</time>
      </trkpt>
      <trkpt lat="42.64165" lon="1.72249">
        <ele>2157.600098</ele>
        <time>2017-11-02T13:19:48Z</time>
      </trkpt>
      <trkpt lat="42.64169" lon="1.72237">
        <ele>2155.399902</ele>
        <time>2017-11-02T13:19:57Z</time>
      </trkpt>
      <trkpt lat="42.64171" lon="1.72225">
        <ele>2152.899902</ele>
        <time>2017-11-02T13:20:06Z</time>
      </trkpt>
      <trkpt lat="42.64173" lon="1.72211">
        <ele>2149.699951</ele>
        <time>2017-11-02T13:20:15Z</time>
      </trkpt>
      <trkpt lat="42.64179" lon="1.722">
        <ele>2147.800049</ele>
        <time>2017-11-02T13:20:26Z</time>
      </trkpt>
      <trkpt lat="42.64179" lon="1.72187">
        <ele>2144.300049</ele>
        <time>2017-11-02T13:20:44Z</time>
      </trkpt>
      <trkpt lat="42.64184" lon="1.72176">
        <ele>2142.5</ele>
        <time>2017-11-02T13:20:58Z</time>
      </trkpt>
      <trkpt lat="42.64188" lon="1.72165">
        <ele>2141.5</ele>
        <time>2017-11-02T13:21:06Z</time>
      </trkpt>
      <trkpt lat="42.6419" lon="1.72153">
        <ele>2139.600098</ele>
        <time>2017-11-02T13:21:17Z</time>
      </trkpt>
      <trkpt lat="42.64193" lon="1.7214">
        <ele>2137.5</ele>
        <time>2017-11-02T13:21:27Z</time>
      </trkpt>
      <trkpt lat="42.64199" lon="1.72131">
        <ele>2137.300049</ele>
        <time>2017-11-02T13:21:37Z</time>
      </trkpt>
      <trkpt lat="42.64206" lon="1.72122">
        <ele>2137.5</ele>
        <time>2017-11-02T13:21:49Z</time>
      </trkpt>
      <trkpt lat="42.64213" lon="1.72113">
        <ele>2138.199951</ele>
        <time>2017-11-02T13:21:58Z</time>
      </trkpt>
      <trkpt lat="42.64217" lon="1.72101">
        <ele>2137.800049</ele>
        <time>2017-11-02T13:22:11Z</time>
      </trkpt>
      <trkpt lat="42.64218" lon="1.72089">
        <ele>2136.300049</ele>
        <time>2017-11-02T13:22:26Z</time>
      </trkpt>
      <trkpt lat="42.64222" lon="1.72076">
        <ele>2135.100098</ele>
        <time>2017-11-02T13:22:37Z</time>
      </trkpt>
      <trkpt lat="42.64225" lon="1.72063">
        <ele>2134.199951</ele>
        <time>2017-11-02T13:22:46Z</time>
      </trkpt>
      <trkpt lat="42.64228" lon="1.7205">
        <ele>2133.199951</ele>
        <time>2017-11-02T13:22:55Z</time>
      </trkpt>
      <trkpt lat="42.64232" lon="1.72038">
        <ele>2132.100098</ele>
        <time>2017-11-02T13:23:06Z</time>
      </trkpt>
      <trkpt lat="42.64231" lon="1.72024">
        <ele>2130.399902</ele>
        <time>2017-11-02T13:23:22Z</time>
      </trkpt>
      <trkpt lat="42.64228" lon="1.72012">
        <ele>2127</ele>
        <time>2017-11-02T13:23:34Z</time>
      </trkpt>
      <trkpt lat="42.64232" lon="1.72">
        <ele>2125.699951</ele>
        <time>2017-11-02T13:23:44Z</time>
      </trkpt>
      <trkpt lat="42.64239" lon="1.7199">
        <ele>2126.199951</ele>
        <time>2017-11-02T13:23:54Z</time>
      </trkpt>
      <trkpt lat="42.64238" lon="1.71978">
        <ele>2124</ele>
        <time>2017-11-02T13:24:12Z</time>
      </trkpt>
      <trkpt lat="42.64238" lon="1.71965">
        <ele>2121.199951</ele>
        <time>2017-11-02T13:24:25Z</time>
      </trkpt>
      <trkpt lat="42.6424" lon="1.71952">
        <ele>2118.899902</ele>
        <time>2017-11-02T13:24:36Z</time>
      </trkpt>
      <trkpt lat="42.64237" lon="1.7194">
        <ele>2115.300049</ele>
        <time>2017-11-02T13:24:47Z</time>
      </trkpt>
      <trkpt lat="42.64233" lon="1.71928">
        <ele>2110.699951</ele>
        <time>2017-11-02T13:25:01Z</time>
      </trkpt>
      <trkpt lat="42.64233" lon="1.71916">
        <ele>2107.199951</ele>
        <time>2017-11-02T13:25:14Z</time>
      </trkpt>
      <trkpt lat="42.64234" lon="1.71902">
        <ele>2104.800049</ele>
        <time>2017-11-02T13:25:26Z</time>
      </trkpt>
      <trkpt lat="42.64238" lon="1.71891">
        <ele>2103</ele>
        <time>2017-11-02T13:25:35Z</time>
      </trkpt>
      <trkpt lat="42.64239" lon="1.71878">
        <ele>2100.600098</ele>
        <time>2017-11-02T13:25:45Z</time>
      </trkpt>
      <trkpt lat="42.64241" lon="1.71865">
        <ele>2097.899902</ele>
        <time>2017-11-02T13:25:58Z</time>
      </trkpt>
      <trkpt lat="42.64243" lon="1.71852">
        <ele>2095.5</ele>
        <time>2017-11-02T13:26:08Z</time>
      </trkpt>
      <trkpt lat="42.64243" lon="1.7184">
        <ele>2092.399902</ele>
        <time>2017-11-02T13:26:18Z</time>
      </trkpt>
      <trkpt lat="42.64239" lon="1.71829">
        <ele>2088.199951</ele>
        <time>2017-11-02T13:26:31Z</time>
      </trkpt>
      <trkpt lat="42.64238" lon="1.71816">
        <ele>2085.199951</ele>
        <time>2017-11-02T13:26:42Z</time>
      </trkpt>
      <trkpt lat="42.6424" lon="1.71803">
        <ele>2083.199951</ele>
        <time>2017-11-02T13:26:52Z</time>
      </trkpt>
      <trkpt lat="42.64243" lon="1.71791">
        <ele>2081.800049</ele>
        <time>2017-11-02T13:27:02Z</time>
      </trkpt>
      <trkpt lat="42.64244" lon="1.71778">
        <ele>2080.300049</ele>
        <time>2017-11-02T13:27:13Z</time>
      </trkpt>
      <trkpt lat="42.64247" lon="1.71766">
        <ele>2079.300049</ele>
        <time>2017-11-02T13:27:23Z</time>
      </trkpt>
      <trkpt lat="42.64244" lon="1.71754">
        <ele>2076</ele>
        <time>2017-11-02T13:27:36Z</time>
      </trkpt>
      <trkpt lat="42.64247" lon="1.71742">
        <ele>2074.399902</ele>
        <time>2017-11-02T13:27:50Z</time>
      </trkpt>
      <trkpt lat="42.64247" lon="1.71729">
        <ele>2071.899902</ele>
        <time>2017-11-02T13:28:05Z</time>
      </trkpt>
      <trkpt lat="42.64245" lon="1.71717">
        <ele>2069</ele>
        <time>2017-11-02T13:28:21Z</time>
      </trkpt>
      <trkpt lat="42.64244" lon="1.71705">
        <ele>2065.800049</ele>
        <time>2017-11-02T13:28:39Z</time>
      </trkpt>
      <trkpt lat="42.64242" lon="1.71693">
        <ele>2062.5</ele>
        <time>2017-11-02T13:29:00Z</time>
      </trkpt>
      <trkpt lat="42.64243" lon="1.71679">
        <ele>2060.5</ele>
        <time>2017-11-02T13:29:13Z</time>
      </trkpt>
      <trkpt lat="42.64243" lon="1.71666">
        <ele>2058.300049</ele>
        <time>2017-11-02T13:29:22Z</time>
      </trkpt>
      <trkpt lat="42.64243" lon="1.71654">
        <ele>2055.800049</ele>
        <time>2017-11-02T13:29:34Z</time>
      </trkpt>
      <trkpt lat="42.64247" lon="1.71642">
        <ele>2055.100098</ele>
        <time>2017-11-02T13:29:45Z</time>
      </trkpt>
      <trkpt lat="42.64246" lon="1.7163">
        <ele>2052.600098</ele>
        <time>2017-11-02T13:30:01Z</time>
      </trkpt>
      <trkpt lat="42.64246" lon="1.71617">
        <ele>2049.899902</ele>
        <time>2017-11-02T13:30:14Z</time>
      </trkpt>
      <trkpt lat="42.64243" lon="1.71604">
        <ele>2046.699951</ele>
        <time>2017-11-02T13:30:23Z</time>
      </trkpt>
      <trkpt lat="42.64244" lon="1.71592">
        <ele>2043.599976</ele>
        <time>2017-11-02T13:30:32Z</time>
      </trkpt>
      <trkpt lat="42.64238" lon="1.71582">
        <ele>2039.5</ele>
        <time>2017-11-02T13:30:46Z</time>
      </trkpt>
      <trkpt lat="42.64239" lon="1.71569">
        <ele>2036.199951</ele>
        <time>2017-11-02T13:30:57Z</time>
      </trkpt>
      <trkpt lat="42.64238" lon="1.71556">
        <ele>2032.900024</ele>
        <time>2017-11-02T13:31:06Z</time>
      </trkpt>
      <trkpt lat="42.64237" lon="1.71544">
        <ele>2028.900024</ele>
        <time>2017-11-02T13:31:20Z</time>
      </trkpt>
      <trkpt lat="42.64238" lon="1.71531">
        <ele>2026.699951</ele>
        <time>2017-11-02T13:31:31Z</time>
      </trkpt>
      <trkpt lat="42.64235" lon="1.71518">
        <ele>2022.800049</ele>
        <time>2017-11-02T13:31:41Z</time>
      </trkpt>
      <trkpt lat="42.64234" lon="1.71505">
        <ele>2018.900024</ele>
        <time>2017-11-02T13:31:51Z</time>
      </trkpt>
      <trkpt lat="42.64234" lon="1.71491">
        <ele>2015.900024</ele>
        <time>2017-11-02T13:32:02Z</time>
      </trkpt>
      <trkpt lat="42.64233" lon="1.71478">
        <ele>2013.699951</ele>
        <time>2017-11-02T13:32:11Z</time>
      </trkpt>
      <trkpt lat="42.64231" lon="1.71465">
        <ele>2010.900024</ele>
        <time>2017-11-02T13:32:21Z</time>
      </trkpt>
      <trkpt lat="42.64233" lon="1.71453">
        <ele>2009.099976</ele>
        <time>2017-11-02T13:32:31Z</time>
      </trkpt>
      <trkpt lat="42.64237" lon="1.7144">
        <ele>2008.900024</ele>
        <time>2017-11-02T13:32:42Z</time>
      </trkpt>
      <trkpt lat="42.64237" lon="1.71428">
        <ele>2008.199951</ele>
        <time>2017-11-02T13:32:53Z</time>
      </trkpt>
      <trkpt lat="42.64238" lon="1.71415">
        <ele>2006.300049</ele>
        <time>2017-11-02T13:33:02Z</time>
      </trkpt>
      <trkpt lat="42.64243" lon="1.71404">
        <ele>2006</ele>
        <time>2017-11-02T13:33:12Z</time>
      </trkpt>
      <trkpt lat="42.64243" lon="1.71391">
        <ele>2004.400024</ele>
        <time>2017-11-02T13:33:26Z</time>
      </trkpt>
      <trkpt lat="42.64242" lon="1.71378">
        <ele>2001.800049</ele>
        <time>2017-11-02T13:33:35Z</time>
      </trkpt>
      <trkpt lat="42.64243" lon="1.71365">
        <ele>1999</ele>
        <time>2017-11-02T13:33:43Z</time>
      </trkpt>
      <trkpt lat="42.64242" lon="1.71352">
        <ele>1996.199951</ele>
        <time>2017-11-02T13:33:55Z</time>
      </trkpt>
      <trkpt lat="42.64242" lon="1.71339">
        <ele>1993</ele>
        <time>2017-11-02T13:34:05Z</time>
      </trkpt>
      <trkpt lat="42.64242" lon="1.71326">
        <ele>1990.5</ele>
        <time>2017-11-02T13:34:14Z</time>
      </trkpt>
      <trkpt lat="42.64235" lon="1.71319">
        <ele>1986</ele>
        <time>2017-11-02T13:34:25Z</time>
      </trkpt>
      <trkpt lat="42.64231" lon="1.71307">
        <ele>1981.5</ele>
        <time>2017-11-02T13:34:35Z</time>
      </trkpt>
      <trkpt lat="42.64231" lon="1.71295">
        <ele>1978.599976</ele>
        <time>2017-11-02T13:34:45Z</time>
      </trkpt>
      <trkpt lat="42.6423" lon="1.71282">
        <ele>1975.900024</ele>
        <time>2017-11-02T13:34:55Z</time>
      </trkpt>
      <trkpt lat="42.64227" lon="1.7127">
        <ele>1972.300049</ele>
        <time>2017-11-02T13:35:05Z</time>
      </trkpt>
      <trkpt lat="42.64224" lon="1.71259">
        <ele>1968.5</ele>
        <time>2017-11-02T13:35:15Z</time>
      </trkpt>
      <trkpt lat="42.64222" lon="1.71246">
        <ele>1964.699951</ele>
        <time>2017-11-02T13:35:26Z</time>
      </trkpt>
      <trkpt lat="42.64216" lon="1.71236">
        <ele>1960.199951</ele>
        <time>2017-11-02T13:35:36Z</time>
      </trkpt>
      <trkpt lat="42.6421" lon="1.71226">
        <ele>1954.599976</ele>
        <time>2017-11-02T13:35:47Z</time>
      </trkpt>
      <trkpt lat="42.64204" lon="1.71216">
        <ele>1949.300049</ele>
        <time>2017-11-02T13:35:56Z</time>
      </trkpt>
      <trkpt lat="42.64197" lon="1.71207">
        <ele>1944.400024</ele>
        <time>2017-11-02T13:36:04Z</time>
      </trkpt>
      <trkpt lat="42.64192" lon="1.71197">
        <ele>1939.199951</ele>
        <time>2017-11-02T13:36:14Z</time>
      </trkpt>
      <trkpt lat="42.64185" lon="1.71189">
        <ele>1934.300049</ele>
        <time>2017-11-02T13:36:24Z</time>
      </trkpt>
      <trkpt lat="42.64178" lon="1.71181">
        <ele>1929.199951</ele>
        <time>2017-11-02T13:36:32Z</time>
      </trkpt>
      <trkpt lat="42.64172" lon="1.71171">
        <ele>1924</ele>
        <time>2017-11-02T13:36:40Z</time>
      </trkpt>
      <trkpt lat="42.6417" lon="1.71158">
        <ele>1920</ele>
        <time>2017-11-02T13:36:50Z</time>
      </trkpt>
      <trkpt lat="42.64165" lon="1.71147">
        <ele>1916.900024</ele>
        <time>2017-11-02T13:36:57Z</time>
      </trkpt>
      <trkpt lat="42.6416" lon="1.71136">
        <ele>1914.099976</ele>
        <time>2017-11-02T13:37:05Z</time>
      </trkpt>
      <trkpt lat="42.64156" lon="1.71124">
        <ele>1911.599976</ele>
        <time>2017-11-02T13:37:14Z</time>
      </trkpt>
      <trkpt lat="42.64149" lon="1.71117">
        <ele>1909.400024</ele>
        <time>2017-11-02T13:37:22Z</time>
      </trkpt>
      <trkpt lat="42.64148" lon="1.71104">
        <ele>1907.400024</ele>
        <time>2017-11-02T13:37:36Z</time>
      </trkpt>
      <trkpt lat="42.64144" lon="1.71091">
        <ele>1904.900024</ele>
        <time>2017-11-02T13:38:07Z</time>
      </trkpt>
      <trkpt lat="42.6414" lon="1.71079">
        <ele>1903.300049</ele>
        <time>2017-11-02T13:38:15Z</time>
      </trkpt>
      <trkpt lat="42.64138" lon="1.71066">
        <ele>1901.400024</ele>
        <time>2017-11-02T13:38:23Z</time>
      </trkpt>
      <trkpt lat="42.64138" lon="1.71053">
        <ele>1899.800049</ele>
        <time>2017-11-02T13:38:31Z</time>
      </trkpt>
      <trkpt lat="42.64137" lon="1.71041">
        <ele>1898.199951</ele>
        <time>2017-11-02T13:38:39Z</time>
      </trkpt>
      <trkpt lat="42.64133" lon="1.71029">
        <ele>1896.300049</ele>
        <time>2017-11-02T13:39:00Z</time>
      </trkpt>
      <trkpt lat="42.64127" lon="1.71018">
        <ele>1894.699951</ele>
        <time>2017-11-02T13:39:12Z</time>
      </trkpt>
      <trkpt lat="42.64121" lon="1.71009">
        <ele>1893.199951</ele>
        <time>2017-11-02T13:39:20Z</time>
      </trkpt>
      <trkpt lat="42.64115" lon="1.70998">
        <ele>1891.599976</ele>
        <time>2017-11-02T13:39:29Z</time>
      </trkpt>
      <trkpt lat="42.64109" lon="1.70989">
        <ele>1890.300049</ele>
        <time>2017-11-02T13:39:37Z</time>
      </trkpt>
      <trkpt lat="42.64107" lon="1.70977">
        <ele>1889.099976</ele>
        <time>2017-11-02T13:39:47Z</time>
      </trkpt>
      <trkpt lat="42.64102" lon="1.70966">
        <ele>1888</ele>
        <time>2017-11-02T13:39:56Z</time>
      </trkpt>
      <trkpt lat="42.64098" lon="1.70954">
        <ele>1887</ele>
        <time>2017-11-02T13:40:06Z</time>
      </trkpt>
      <trkpt lat="42.64097" lon="1.70941">
        <ele>1886</ele>
        <time>2017-11-02T13:40:16Z</time>
      </trkpt>
      <trkpt lat="42.64097" lon="1.70927">
        <ele>1885</ele>
        <time>2017-11-02T13:40:26Z</time>
      </trkpt>
      <trkpt lat="42.64098" lon="1.70914">
        <ele>1884.099976</ele>
        <time>2017-11-02T13:40:34Z</time>
      </trkpt>
      <trkpt lat="42.64099" lon="1.70901">
        <ele>1882.300049</ele>
        <time>2017-11-02T13:40:43Z</time>
      </trkpt>
      <trkpt lat="42.64101" lon="1.70889">
        <ele>1880.5</ele>
        <time>2017-11-02T13:40:52Z</time>
      </trkpt>
      <trkpt lat="42.64099" lon="1.70876">
        <ele>1878.599976</ele>
        <time>2017-11-02T13:41:01Z</time>
      </trkpt>
      <trkpt lat="42.64095" lon="1.70864">
        <ele>1876.800049</ele>
        <time>2017-11-02T13:41:09Z</time>
      </trkpt>
      <trkpt lat="42.64089" lon="1.70854">
        <ele>1875</ele>
        <time>2017-11-02T13:41:17Z</time>
      </trkpt>
      <trkpt lat="42.64085" lon="1.70842">
        <ele>1873</ele>
        <time>2017-11-02T13:41:26Z</time>
      </trkpt>
      <trkpt lat="42.64085" lon="1.70829">
        <ele>1871.099976</ele>
        <time>2017-11-02T13:41:35Z</time>
      </trkpt>
      <trkpt lat="42.64085" lon="1.70816">
        <ele>1869.800049</ele>
        <time>2017-11-02T13:41:46Z</time>
      </trkpt>
      <trkpt lat="42.64082" lon="1.70803">
        <ele>1868.300049</ele>
        <time>2017-11-02T13:41:57Z</time>
      </trkpt>
      <trkpt lat="42.6408" lon="1.7079">
        <ele>1866.699951</ele>
        <time>2017-11-02T13:42:11Z</time>
      </trkpt>
      <trkpt lat="42.64077" lon="1.70779">
        <ele>1865</ele>
        <time>2017-11-02T13:42:23Z</time>
      </trkpt>
      <trkpt lat="42.64079" lon="1.70767">
        <ele>1864.199951</ele>
        <time>2017-11-02T13:42:38Z</time>
      </trkpt>
      <trkpt lat="42.64075" lon="1.70754">
        <ele>1862.599976</ele>
        <time>2017-11-02T13:42:46Z</time>
      </trkpt>
      <trkpt lat="42.64072" lon="1.70742">
        <ele>1859.800049</ele>
        <time>2017-11-02T13:43:05Z</time>
      </trkpt>
      <trkpt lat="42.64073" lon="1.70729">
        <ele>1857.199951</ele>
        <time>2017-11-02T13:43:17Z</time>
      </trkpt>
      <trkpt lat="42.64076" lon="1.70718">
        <ele>1855.199951</ele>
        <time>2017-11-02T13:43:34Z</time>
      </trkpt>
      <trkpt lat="42.6408" lon="1.70707">
        <ele>1853.800049</ele>
        <time>2017-11-02T13:43:47Z</time>
      </trkpt>
      <trkpt lat="42.64084" lon="1.70695">
        <ele>1852.099976</ele>
        <time>2017-11-02T13:43:57Z</time>
      </trkpt>
      <trkpt lat="42.64088" lon="1.70683">
        <ele>1850.699951</ele>
        <time>2017-11-02T13:44:06Z</time>
      </trkpt>
      <trkpt lat="42.64087" lon="1.7067">
        <ele>1848.300049</ele>
        <time>2017-11-02T13:44:15Z</time>
      </trkpt>
      <trkpt lat="42.64092" lon="1.7066">
        <ele>1846.5</ele>
        <time>2017-11-02T13:44:27Z</time>
      </trkpt>
      <trkpt lat="42.64096" lon="1.70648">
        <ele>1844.699951</ele>
        <time>2017-11-02T13:44:37Z</time>
      </trkpt>
      <trkpt lat="42.64096" lon="1.70636">
        <ele>1842</ele>
        <time>2017-11-02T13:44:47Z</time>
      </trkpt>
      <trkpt lat="42.641" lon="1.70625">
        <ele>1839.5</ele>
        <time>2017-11-02T13:45:07Z</time>
      </trkpt>
      <trkpt lat="42.64105" lon="1.70613">
        <ele>1837.599976</ele>
        <time>2017-11-02T13:45:20Z</time>
      </trkpt>
      <trkpt lat="42.6411" lon="1.70602">
        <ele>1836</ele>
        <time>2017-11-02T13:45:32Z</time>
      </trkpt>
      <trkpt lat="42.64114" lon="1.7059">
        <ele>1833.400024</ele>
        <time>2017-11-02T13:45:44Z</time>
      </trkpt>
      <trkpt lat="42.64114" lon="1.70578">
        <ele>1830</ele>
        <time>2017-11-02T13:45:56Z</time>
      </trkpt>
      <trkpt lat="42.64117" lon="1.70565">
        <ele>1826.199951</ele>
        <time>2017-11-02T13:46:05Z</time>
      </trkpt>
      <trkpt lat="42.64119" lon="1.70551">
        <ele>1821.300049</ele>
        <time>2017-11-02T13:46:23Z</time>
      </trkpt>
      <trkpt lat="42.64122" lon="1.70539">
        <ele>1817.599976</ele>
        <time>2017-11-02T13:46:34Z</time>
      </trkpt>
      <trkpt lat="42.64127" lon="1.70528">
        <ele>1814.699951</ele>
        <time>2017-11-02T13:46:46Z</time>
      </trkpt>
      <trkpt lat="42.64133" lon="1.70518">
        <ele>1812.599976</ele>
        <time>2017-11-02T13:46:57Z</time>
      </trkpt>
      <trkpt lat="42.64138" lon="1.70507">
        <ele>1810.199951</ele>
        <time>2017-11-02T13:47:10Z</time>
      </trkpt>
      <trkpt lat="42.64146" lon="1.70499">
        <ele>1809.699951</ele>
        <time>2017-11-02T13:47:29Z</time>
      </trkpt>
      <trkpt lat="42.64153" lon="1.70489">
        <ele>1808.699951</ele>
        <time>2017-11-02T13:47:41Z</time>
      </trkpt>
      <trkpt lat="42.6416" lon="1.70478">
        <ele>1806.199951</ele>
        <time>2017-11-02T13:47:50Z</time>
      </trkpt>
      <trkpt lat="42.64166" lon="1.70467">
        <ele>1803.300049</ele>
        <time>2017-11-02T13:48:00Z</time>
      </trkpt>
      <trkpt lat="42.64162" lon="1.70455">
        <ele>1797</ele>
        <time>2017-11-02T13:48:45Z</time>
      </trkpt>
      <trkpt lat="42.64169" lon="1.70447">
        <ele>1794.800049</ele>
        <time>2017-11-02T13:48:57Z</time>
      </trkpt>
      <trkpt lat="42.64168" lon="1.70434">
        <ele>1789.800049</ele>
        <time>2017-11-02T13:49:09Z</time>
      </trkpt>
      <trkpt lat="42.64173" lon="1.70423">
        <ele>1785.400024</ele>
        <time>2017-11-02T13:49:21Z</time>
      </trkpt>
      <trkpt lat="42.64173" lon="1.70411">
        <ele>1780</ele>
        <time>2017-11-02T13:49:34Z</time>
      </trkpt>
      <trkpt lat="42.6417" lon="1.70399">
        <ele>1775.400024</ele>
        <time>2017-11-02T13:49:41Z</time>
      </trkpt>
      <trkpt lat="42.64179" lon="1.70394">
        <ele>1771.900024</ele>
        <time>2017-11-02T13:49:52Z</time>
      </trkpt>
      <trkpt lat="42.64187" lon="1.70397">
        <ele>1774.400024</ele>
        <time>2017-11-02T13:50:11Z</time>
      </trkpt>
      <trkpt lat="42.64191" lon="1.70385">
        <ele>1770.699951</ele>
        <time>2017-11-02T13:50:19Z</time>
      </trkpt>
      <trkpt lat="42.64197" lon="1.70375">
        <ele>1765.099976</ele>
        <time>2017-11-02T13:50:28Z</time>
      </trkpt>
      <trkpt lat="42.64199" lon="1.70362">
        <ele>1759.5</ele>
        <time>2017-11-02T13:50:41Z</time>
      </trkpt>
      <trkpt lat="42.64207" lon="1.70356">
        <ele>1756</ele>
        <time>2017-11-02T13:50:56Z</time>
      </trkpt>
      <trkpt lat="42.64214" lon="1.70347">
        <ele>1753.099976</ele>
        <time>2017-11-02T13:51:06Z</time>
      </trkpt>
      <trkpt lat="42.64219" lon="1.70336">
        <ele>1748.199951</ele>
        <time>2017-11-02T13:51:15Z</time>
      </trkpt>
      <trkpt lat="42.64228" lon="1.70332">
        <ele>1746.099976</ele>
        <time>2017-11-02T13:51:26Z</time>
      </trkpt>
      <trkpt lat="42.64237" lon="1.70326">
        <ele>1744.900024</ele>
        <time>2017-11-02T13:51:35Z</time>
      </trkpt>
      <trkpt lat="42.64244" lon="1.70319">
        <ele>1743.199951</ele>
        <time>2017-11-02T13:51:48Z</time>
      </trkpt>
      <trkpt lat="42.64253" lon="1.70316">
        <ele>1742.5</ele>
        <time>2017-11-02T13:51:57Z</time>
      </trkpt>
      <trkpt lat="42.64263" lon="1.70315">
        <ele>1742.5</ele>
        <time>2017-11-02T13:52:05Z</time>
      </trkpt>
      <trkpt lat="42.64272" lon="1.70316">
        <ele>1743</ele>
        <time>2017-11-02T13:52:18Z</time>
      </trkpt>
      <trkpt lat="42.64282" lon="1.70315">
        <ele>1743.300049</ele>
        <time>2017-11-02T13:52:31Z</time>
      </trkpt>
      <trkpt lat="42.64291" lon="1.70316">
        <ele>1743.599976</ele>
        <time>2017-11-02T13:52:43Z</time>
      </trkpt>
      <trkpt lat="42.64301" lon="1.70317">
        <ele>1744.099976</ele>
        <time>2017-11-02T13:52:50Z</time>
      </trkpt>
      <trkpt lat="42.6431" lon="1.70318">
        <ele>1744.900024</ele>
        <time>2017-11-02T13:53:00Z</time>
      </trkpt>
      <trkpt lat="42.64317" lon="1.70309">
        <ele>1743.400024</ele>
        <time>2017-11-02T13:53:07Z</time>
      </trkpt>
      <trkpt lat="42.64323" lon="1.703">
        <ele>1740.400024</ele>
        <time>2017-11-02T13:53:17Z</time>
      </trkpt>
      <trkpt lat="42.64331" lon="1.70294">
        <ele>1738.599976</ele>
        <time>2017-11-02T13:53:27Z</time>
      </trkpt>
      <trkpt lat="42.6434" lon="1.70288">
        <ele>1736.5</ele>
        <time>2017-11-02T13:53:39Z</time>
      </trkpt>
      <trkpt lat="42.64348" lon="1.70283">
        <ele>1734.5</ele>
        <time>2017-11-02T13:53:49Z</time>
      </trkpt>
      <trkpt lat="42.64356" lon="1.70275">
        <ele>1731.5</ele>
        <time>2017-11-02T13:53:58Z</time>
      </trkpt>
      <trkpt lat="42.64366" lon="1.70272">
        <ele>1729.599976</ele>
        <time>2017-11-02T13:54:08Z</time>
      </trkpt>
      <trkpt lat="42.64376" lon="1.70271">
        <ele>1728.199951</ele>
        <time>2017-11-02T13:54:17Z</time>
      </trkpt>
      <trkpt lat="42.64386" lon="1.70271">
        <ele>1727.699951</ele>
        <time>2017-11-02T13:54:27Z</time>
      </trkpt>
      <trkpt lat="42.64395" lon="1.70272">
        <ele>1727.199951</ele>
        <time>2017-11-02T13:54:36Z</time>
      </trkpt>
      <trkpt lat="42.64405" lon="1.70273">
        <ele>1726.900024</ele>
        <time>2017-11-02T13:54:47Z</time>
      </trkpt>
      <trkpt lat="42.64414" lon="1.70275">
        <ele>1727.800049</ele>
        <time>2017-11-02T13:54:57Z</time>
      </trkpt>
      <trkpt lat="42.64423" lon="1.7027">
        <ele>1726</ele>
        <time>2017-11-02T13:55:05Z</time>
      </trkpt>
      <trkpt lat="42.64433" lon="1.70269">
        <ele>1724.800049</ele>
        <time>2017-11-02T13:55:14Z</time>
      </trkpt>
      <trkpt lat="42.64442" lon="1.70263">
        <ele>1722.900024</ele>
        <time>2017-11-02T13:55:24Z</time>
      </trkpt>
      <trkpt lat="42.64451" lon="1.70263">
        <ele>1722.5</ele>
        <time>2017-11-02T13:55:35Z</time>
      </trkpt>
      <trkpt lat="42.64461" lon="1.70263">
        <ele>1722.699951</ele>
        <time>2017-11-02T13:55:44Z</time>
      </trkpt>
      <trkpt lat="42.6447" lon="1.70264">
        <ele>1722.599976</ele>
        <time>2017-11-02T13:55:54Z</time>
      </trkpt>
      <trkpt lat="42.6448" lon="1.70264">
        <ele>1723.099976</ele>
        <time>2017-11-02T13:56:05Z</time>
      </trkpt>
      <trkpt lat="42.64489" lon="1.70267">
        <ele>1723.400024</ele>
        <time>2017-11-02T13:56:14Z</time>
      </trkpt>
      <trkpt lat="42.64498" lon="1.70262">
        <ele>1723</ele>
        <time>2017-11-02T13:56:26Z</time>
      </trkpt>
      <trkpt lat="42.64506" lon="1.70258">
        <ele>1721.599976</ele>
        <time>2017-11-02T13:56:36Z</time>
      </trkpt>
      <trkpt lat="42.64515" lon="1.70259">
        <ele>1720.5</ele>
        <time>2017-11-02T13:56:45Z</time>
      </trkpt>
      <trkpt lat="42.64529" lon="1.7026">
        <ele>1719.099976</ele>
        <time>2017-11-02T13:57:10Z</time>
      </trkpt>
      <trkpt lat="42.64538" lon="1.70258">
        <ele>1718.199951</ele>
        <time>2017-11-02T13:57:22Z</time>
      </trkpt>
      <trkpt lat="42.64546" lon="1.70265">
        <ele>1718.099976</ele>
        <time>2017-11-02T13:57:35Z</time>
      </trkpt>
      <trkpt lat="42.64555" lon="1.70263">
        <ele>1717.300049</ele>
        <time>2017-11-02T13:57:44Z</time>
      </trkpt>
      <trkpt lat="42.64565" lon="1.70264">
        <ele>1716.099976</ele>
        <time>2017-11-02T13:57:54Z</time>
      </trkpt>
      <trkpt lat="42.64574" lon="1.70266">
        <ele>1715.300049</ele>
        <time>2017-11-02T13:58:04Z</time>
      </trkpt>
      <trkpt lat="42.64584" lon="1.70268">
        <ele>1714.599976</ele>
        <time>2017-11-02T13:58:12Z</time>
      </trkpt>
      <trkpt lat="42.64593" lon="1.70273">
        <ele>1713.800049</ele>
        <time>2017-11-02T13:58:20Z</time>
      </trkpt>
      <trkpt lat="42.64602" lon="1.70275">
        <ele>1713.099976</ele>
        <time>2017-11-02T13:58:27Z</time>
      </trkpt>
      <trkpt lat="42.64612" lon="1.70274">
        <ele>1711.800049</ele>
        <time>2017-11-02T13:58:34Z</time>
      </trkpt>
      <trkpt lat="42.64622" lon="1.70277">
        <ele>1710.400024</ele>
        <time>2017-11-02T13:58:43Z</time>
      </trkpt>
      <trkpt lat="42.6463" lon="1.70283">
        <ele>1709.400024</ele>
        <time>2017-11-02T13:58:56Z</time>
      </trkpt>
      <trkpt lat="42.6464" lon="1.70288">
        <ele>1708.599976</ele>
        <time>2017-11-02T13:59:03Z</time>
      </trkpt>
      <trkpt lat="42.64649" lon="1.70291">
        <ele>1707.099976</ele>
        <time>2017-11-02T13:59:13Z</time>
      </trkpt>
      <trkpt lat="42.64658" lon="1.70289">
        <ele>1705.5</ele>
        <time>2017-11-02T13:59:27Z</time>
      </trkpt>
      <trkpt lat="42.64667" lon="1.70293">
        <ele>1704.300049</ele>
        <time>2017-11-02T13:59:38Z</time>
      </trkpt>
      <trkpt lat="42.64677" lon="1.70297">
        <ele>1703.800049</ele>
        <time>2017-11-02T13:59:46Z</time>
      </trkpt>
      <trkpt lat="42.64686" lon="1.70296">
        <ele>1703.199951</ele>
        <time>2017-11-02T14:00:00Z</time>
      </trkpt>
      <trkpt lat="42.64696" lon="1.70294">
        <ele>1702.800049</ele>
        <time>2017-11-02T14:00:07Z</time>
      </trkpt>
      <trkpt lat="42.64705" lon="1.70289">
        <ele>1702.400024</ele>
        <time>2017-11-02T14:00:12Z</time>
      </trkpt>
      <trkpt lat="42.64714" lon="1.70289">
        <ele>1701.800049</ele>
        <time>2017-11-02T14:00:21Z</time>
      </trkpt>
      <trkpt lat="42.64724" lon="1.70288">
        <ele>1701.300049</ele>
        <time>2017-11-02T14:00:29Z</time>
      </trkpt>
      <trkpt lat="42.64734" lon="1.70289">
        <ele>1700.900024</ele>
        <time>2017-11-02T14:00:37Z</time>
      </trkpt>
      <trkpt lat="42.64744" lon="1.70288">
        <ele>1700.400024</ele>
        <time>2017-11-02T14:00:43Z</time>
      </trkpt>
      <trkpt lat="42.64753" lon="1.7029">
        <ele>1699.900024</ele>
        <time>2017-11-02T14:00:56Z</time>
      </trkpt>
      <trkpt lat="42.64762" lon="1.70293">
        <ele>1699.699951</ele>
        <time>2017-11-02T14:01:05Z</time>
      </trkpt>
      <trkpt lat="42.6477" lon="1.70299">
        <ele>1699.5</ele>
        <time>2017-11-02T14:01:13Z</time>
      </trkpt>
      <trkpt lat="42.64779" lon="1.70303">
        <ele>1699.199951</ele>
        <time>2017-11-02T14:01:24Z</time>
      </trkpt>
      <trkpt lat="42.64789" lon="1.70306">
        <ele>1698.900024</ele>
        <time>2017-11-02T14:01:35Z</time>
      </trkpt>
      <trkpt lat="42.64797" lon="1.70312">
        <ele>1698.599976</ele>
        <time>2017-11-02T14:01:44Z</time>
      </trkpt>
      <trkpt lat="42.64806" lon="1.70316">
        <ele>1698.300049</ele>
        <time>2017-11-02T14:02:00Z</time>
      </trkpt>
      <trkpt lat="42.64815" lon="1.7032">
        <ele>1697.900024</ele>
        <time>2017-11-02T14:02:09Z</time>
      </trkpt>
      <trkpt lat="42.64824" lon="1.70319">
        <ele>1697.599976</ele>
        <time>2017-11-02T14:02:15Z</time>
      </trkpt>
      <trkpt lat="42.64834" lon="1.70323">
        <ele>1697.099976</ele>
        <time>2017-11-02T14:02:25Z</time>
      </trkpt>
      <trkpt lat="42.64843" lon="1.70327">
        <ele>1697.199951</ele>
        <time>2017-11-02T14:02:35Z</time>
      </trkpt>
      <trkpt lat="42.64852" lon="1.70329">
        <ele>1697.400024</ele>
        <time>2017-11-02T14:02:46Z</time>
      </trkpt>
      <trkpt lat="42.64861" lon="1.7033">
        <ele>1697.599976</ele>
        <time>2017-11-02T14:02:59Z</time>
      </trkpt>
      <trkpt lat="42.64871" lon="1.7033">
        <ele>1697.900024</ele>
        <time>2017-11-02T14:03:13Z</time>
      </trkpt>
      <trkpt lat="42.64881" lon="1.7033">
        <ele>1698.099976</ele>
        <time>2017-11-02T14:03:24Z</time>
      </trkpt>
      <trkpt lat="42.6489" lon="1.70326">
        <ele>1698.300049</ele>
        <time>2017-11-02T14:03:32Z</time>
      </trkpt>
      <trkpt lat="42.64899" lon="1.70329">
        <ele>1698.599976</ele>
        <time>2017-11-02T14:03:43Z</time>
      </trkpt>
      <trkpt lat="42.64907" lon="1.70337">
        <ele>1699.199951</ele>
        <time>2017-11-02T14:03:53Z</time>
      </trkpt>
      <trkpt lat="42.64914" lon="1.70344">
        <ele>1701.300049</ele>
        <time>2017-11-02T14:04:02Z</time>
      </trkpt>
      <trkpt lat="42.64923" lon="1.70349">
        <ele>1702.800049</ele>
        <time>2017-11-02T14:04:11Z</time>
      </trkpt>
      <trkpt lat="42.64929" lon="1.70349">
        <ele>1703.300049</ele>
        <time>2017-11-02T14:05:12Z</time>
      </trkpt>
    </trkseg>
  </trk>
</gpx>